<?xml version="1.0" encoding="UTF-8" standalone="no" ?>
<gpx xmlns="http://www.topografix.com/GPX/1/1" xmlns:xsi="http://www.w3.org/2001/XMLSchema-instance" xsi:schemaLocation="http://www.topografix.com/GPX/1/1 http://www.topografix.com/GPX/1/1/gpx.xsd" version="1.1" creator="VisuGPX - https://www.visugpx.com">
  <metadata>
    <name>Course à pied le midi</name>
  </metadata>
  <trk>
    <name><![CDATA[Course à pied le midi_1]]></name>
    <trkseg>
      <trkpt lat="48.71136" lon="7.16269">
        <ele>317.2</ele>
        <time>2023-11-21T11:14:22Z</time>
      </trkpt>
      <trkpt lat="48.71134" lon="7.16268">
        <ele>317.3</ele>
        <time>2023-11-21T11:14:23Z</time>
      </trkpt>
      <trkpt lat="48.71118" lon="7.16252">
        <ele>317.8</ele>
        <time>2023-11-21T11:14:30Z</time>
      </trkpt>
      <trkpt lat="48.71103" lon="7.16231">
        <ele>318.1</ele>
        <time>2023-11-21T11:14:37Z</time>
      </trkpt>
      <trkpt lat="48.71087" lon="7.16211">
        <ele>318.2</ele>
        <time>2023-11-21T11:14:44Z</time>
      </trkpt>
      <trkpt lat="48.71072" lon="7.16196">
        <ele>318.4</ele>
        <time>2023-11-21T11:14:50Z</time>
      </trkpt>
      <trkpt lat="48.71053" lon="7.16184">
        <ele>318.5</ele>
        <time>2023-11-21T11:14:57Z</time>
      </trkpt>
      <trkpt lat="48.71033" lon="7.16176">
        <ele>318.6</ele>
        <time>2023-11-21T11:15:04Z</time>
      </trkpt>
      <trkpt lat="48.71014" lon="7.16169">
        <ele>318.8</ele>
        <time>2023-11-21T11:15:10Z</time>
      </trkpt>
      <trkpt lat="48.70995" lon="7.16164">
        <ele>319.1</ele>
        <time>2023-11-21T11:15:17Z</time>
      </trkpt>
      <trkpt lat="48.70976" lon="7.16161">
        <ele>319.7</ele>
        <time>2023-11-21T11:15:24Z</time>
      </trkpt>
      <trkpt lat="48.70955" lon="7.16155">
        <ele>320.3</ele>
        <time>2023-11-21T11:15:31Z</time>
      </trkpt>
      <trkpt lat="48.70936" lon="7.16149">
        <ele>321</ele>
        <time>2023-11-21T11:15:38Z</time>
      </trkpt>
      <trkpt lat="48.70917" lon="7.16146">
        <ele>321.8</ele>
        <time>2023-11-21T11:15:45Z</time>
      </trkpt>
      <trkpt lat="48.70897" lon="7.16141">
        <ele>322.5</ele>
        <time>2023-11-21T11:15:53Z</time>
      </trkpt>
      <trkpt lat="48.70878" lon="7.16139">
        <ele>323.1</ele>
        <time>2023-11-21T11:16:00Z</time>
      </trkpt>
      <trkpt lat="48.7086" lon="7.16135">
        <ele>323.8</ele>
        <time>2023-11-21T11:16:07Z</time>
      </trkpt>
      <trkpt lat="48.70842" lon="7.16131">
        <ele>324.6</ele>
        <time>2023-11-21T11:16:14Z</time>
      </trkpt>
      <trkpt lat="48.70826" lon="7.16128">
        <ele>325.2</ele>
        <time>2023-11-21T11:16:20Z</time>
      </trkpt>
      <trkpt lat="48.70813" lon="7.1615">
        <ele>327.4</ele>
        <time>2023-11-21T11:16:28Z</time>
      </trkpt>
      <trkpt lat="48.70802" lon="7.16173">
        <ele>328.9</ele>
        <time>2023-11-21T11:16:37Z</time>
      </trkpt>
      <trkpt lat="48.70791" lon="7.16195">
        <ele>330.3</ele>
        <time>2023-11-21T11:16:45Z</time>
      </trkpt>
      <trkpt lat="48.70779" lon="7.16217">
        <ele>331.8</ele>
        <time>2023-11-21T11:16:54Z</time>
      </trkpt>
      <trkpt lat="48.70768" lon="7.16241">
        <ele>333.6</ele>
        <time>2023-11-21T11:17:02Z</time>
      </trkpt>
      <trkpt lat="48.70754" lon="7.16263">
        <ele>335.5</ele>
        <time>2023-11-21T11:17:11Z</time>
      </trkpt>
      <trkpt lat="48.70743" lon="7.16288">
        <ele>337.3</ele>
        <time>2023-11-21T11:17:19Z</time>
      </trkpt>
      <trkpt lat="48.70732" lon="7.16311">
        <ele>338.8</ele>
        <time>2023-11-21T11:17:26Z</time>
      </trkpt>
      <trkpt lat="48.70719" lon="7.16333">
        <ele>340.4</ele>
        <time>2023-11-21T11:17:34Z</time>
      </trkpt>
      <trkpt lat="48.70707" lon="7.16354">
        <ele>341.9</ele>
        <time>2023-11-21T11:17:41Z</time>
      </trkpt>
      <trkpt lat="48.70695" lon="7.16376">
        <ele>343.4</ele>
        <time>2023-11-21T11:17:48Z</time>
      </trkpt>
      <trkpt lat="48.70683" lon="7.16398">
        <ele>344.9</ele>
        <time>2023-11-21T11:17:56Z</time>
      </trkpt>
      <trkpt lat="48.70671" lon="7.1642">
        <ele>346.5</ele>
        <time>2023-11-21T11:18:04Z</time>
      </trkpt>
      <trkpt lat="48.70657" lon="7.16443">
        <ele>347.6</ele>
        <time>2023-11-21T11:18:12Z</time>
      </trkpt>
      <trkpt lat="48.70643" lon="7.16464">
        <ele>348.5</ele>
        <time>2023-11-21T11:18:19Z</time>
      </trkpt>
      <trkpt lat="48.70628" lon="7.16486">
        <ele>349.5</ele>
        <time>2023-11-21T11:18:26Z</time>
      </trkpt>
      <trkpt lat="48.70616" lon="7.16509">
        <ele>350.7</ele>
        <time>2023-11-21T11:18:33Z</time>
      </trkpt>
      <trkpt lat="48.70604" lon="7.16531">
        <ele>351.7</ele>
        <time>2023-11-21T11:18:40Z</time>
      </trkpt>
      <trkpt lat="48.70591" lon="7.16552">
        <ele>352.6</ele>
        <time>2023-11-21T11:18:47Z</time>
      </trkpt>
      <trkpt lat="48.70578" lon="7.16571">
        <ele>353.4</ele>
        <time>2023-11-21T11:18:54Z</time>
      </trkpt>
      <trkpt lat="48.70564" lon="7.16592">
        <ele>354.3</ele>
        <time>2023-11-21T11:19:01Z</time>
      </trkpt>
      <trkpt lat="48.70551" lon="7.16613">
        <ele>355.2</ele>
        <time>2023-11-21T11:19:08Z</time>
      </trkpt>
      <trkpt lat="48.70539" lon="7.16633">
        <ele>355.9</ele>
        <time>2023-11-21T11:19:15Z</time>
      </trkpt>
      <trkpt lat="48.70525" lon="7.16656">
        <ele>356.6</ele>
        <time>2023-11-21T11:19:22Z</time>
      </trkpt>
      <trkpt lat="48.70512" lon="7.16679">
        <ele>356.7</ele>
        <time>2023-11-21T11:19:29Z</time>
      </trkpt>
      <trkpt lat="48.70501" lon="7.16703">
        <ele>356.4</ele>
        <time>2023-11-21T11:19:36Z</time>
      </trkpt>
      <trkpt lat="48.7049" lon="7.16725">
        <ele>355.9</ele>
        <time>2023-11-21T11:19:42Z</time>
      </trkpt>
      <trkpt lat="48.70477" lon="7.16749">
        <ele>355.1</ele>
        <time>2023-11-21T11:19:49Z</time>
      </trkpt>
      <trkpt lat="48.70464" lon="7.1677">
        <ele>354.3</ele>
        <time>2023-11-21T11:19:55Z</time>
      </trkpt>
      <trkpt lat="48.70448" lon="7.1679">
        <ele>353.6</ele>
        <time>2023-11-21T11:20:02Z</time>
      </trkpt>
      <trkpt lat="48.70434" lon="7.16807">
        <ele>353.4</ele>
        <time>2023-11-21T11:20:08Z</time>
      </trkpt>
      <trkpt lat="48.70418" lon="7.16828">
        <ele>353.4</ele>
        <time>2023-11-21T11:20:15Z</time>
      </trkpt>
      <trkpt lat="48.70404" lon="7.16848">
        <ele>353.6</ele>
        <time>2023-11-21T11:20:22Z</time>
      </trkpt>
      <trkpt lat="48.70387" lon="7.16863">
        <ele>353.9</ele>
        <time>2023-11-21T11:20:29Z</time>
      </trkpt>
      <trkpt lat="48.70368" lon="7.16875">
        <ele>354.5</ele>
        <time>2023-11-21T11:20:36Z</time>
      </trkpt>
      <trkpt lat="48.7035" lon="7.16886">
        <ele>355.4</ele>
        <time>2023-11-21T11:20:43Z</time>
      </trkpt>
      <trkpt lat="48.70332" lon="7.16895">
        <ele>356.7</ele>
        <time>2023-11-21T11:20:51Z</time>
      </trkpt>
      <trkpt lat="48.70314" lon="7.16908">
        <ele>358.4</ele>
        <time>2023-11-21T11:20:59Z</time>
      </trkpt>
      <trkpt lat="48.70297" lon="7.1692">
        <ele>360.1</ele>
        <time>2023-11-21T11:21:07Z</time>
      </trkpt>
      <trkpt lat="48.70279" lon="7.16932">
        <ele>361.6</ele>
        <time>2023-11-21T11:21:15Z</time>
      </trkpt>
      <trkpt lat="48.70261" lon="7.16944">
        <ele>363</ele>
        <time>2023-11-21T11:21:23Z</time>
      </trkpt>
      <trkpt lat="48.70243" lon="7.16957">
        <ele>364.2</ele>
        <time>2023-11-21T11:21:31Z</time>
      </trkpt>
      <trkpt lat="48.70225" lon="7.16971">
        <ele>365.3</ele>
        <time>2023-11-21T11:21:39Z</time>
      </trkpt>
      <trkpt lat="48.70208" lon="7.16985">
        <ele>366.2</ele>
        <time>2023-11-21T11:21:46Z</time>
      </trkpt>
      <trkpt lat="48.70192" lon="7.16997">
        <ele>367.5</ele>
        <time>2023-11-21T11:21:53Z</time>
      </trkpt>
      <trkpt lat="48.70175" lon="7.1701">
        <ele>368.9</ele>
        <time>2023-11-21T11:22:01Z</time>
      </trkpt>
      <trkpt lat="48.70157" lon="7.17023">
        <ele>370.5</ele>
        <time>2023-11-21T11:22:10Z</time>
      </trkpt>
      <trkpt lat="48.7014" lon="7.17037">
        <ele>372.2</ele>
        <time>2023-11-21T11:22:18Z</time>
      </trkpt>
      <trkpt lat="48.70131" lon="7.17063">
        <ele>372.9</ele>
        <time>2023-11-21T11:22:25Z</time>
      </trkpt>
      <trkpt lat="48.70118" lon="7.17084">
        <ele>374.4</ele>
        <time>2023-11-21T11:22:32Z</time>
      </trkpt>
      <trkpt lat="48.70101" lon="7.171">
        <ele>376.1</ele>
        <time>2023-11-21T11:22:40Z</time>
      </trkpt>
      <trkpt lat="48.70084" lon="7.17116">
        <ele>377.8</ele>
        <time>2023-11-21T11:22:48Z</time>
      </trkpt>
      <trkpt lat="48.70067" lon="7.17131">
        <ele>379.5</ele>
        <time>2023-11-21T11:22:56Z</time>
      </trkpt>
      <trkpt lat="48.70051" lon="7.17147">
        <ele>381.3</ele>
        <time>2023-11-21T11:23:04Z</time>
      </trkpt>
      <trkpt lat="48.70034" lon="7.17162">
        <ele>383.1</ele>
        <time>2023-11-21T11:23:12Z</time>
      </trkpt>
      <trkpt lat="48.70017" lon="7.17179">
        <ele>385</ele>
        <time>2023-11-21T11:23:20Z</time>
      </trkpt>
      <trkpt lat="48.70002" lon="7.17197">
        <ele>386.7</ele>
        <time>2023-11-21T11:23:27Z</time>
      </trkpt>
      <trkpt lat="48.69986" lon="7.17214">
        <ele>388.5</ele>
        <time>2023-11-21T11:23:35Z</time>
      </trkpt>
      <trkpt lat="48.69971" lon="7.17232">
        <ele>390</ele>
        <time>2023-11-21T11:23:42Z</time>
      </trkpt>
      <trkpt lat="48.69957" lon="7.17251">
        <ele>391.2</ele>
        <time>2023-11-21T11:23:49Z</time>
      </trkpt>
      <trkpt lat="48.69944" lon="7.17272">
        <ele>392.3</ele>
        <time>2023-11-21T11:23:56Z</time>
      </trkpt>
      <trkpt lat="48.69928" lon="7.17292">
        <ele>393.3</ele>
        <time>2023-11-21T11:24:04Z</time>
      </trkpt>
      <trkpt lat="48.69912" lon="7.17308">
        <ele>394.3</ele>
        <time>2023-11-21T11:24:11Z</time>
      </trkpt>
      <trkpt lat="48.69894" lon="7.17315">
        <ele>395.6</ele>
        <time>2023-11-21T11:24:18Z</time>
      </trkpt>
      <trkpt lat="48.69875" lon="7.17324">
        <ele>396.9</ele>
        <time>2023-11-21T11:24:25Z</time>
      </trkpt>
      <trkpt lat="48.69857" lon="7.17331">
        <ele>398</ele>
        <time>2023-11-21T11:24:32Z</time>
      </trkpt>
      <trkpt lat="48.69839" lon="7.17337">
        <ele>397.6</ele>
        <time>2023-11-21T11:24:39Z</time>
      </trkpt>
      <trkpt lat="48.69836" lon="7.17336">
        <ele>397.6</ele>
        <time>2023-11-21T11:24:40Z</time>
      </trkpt>
      <trkpt lat="48.69823" lon="7.17314">
        <ele>397.4</ele>
        <time>2023-11-21T11:24:48Z</time>
      </trkpt>
      <trkpt lat="48.69813" lon="7.1729">
        <ele>397.3</ele>
        <time>2023-11-21T11:24:56Z</time>
      </trkpt>
      <trkpt lat="48.69802" lon="7.17263">
        <ele>396.8</ele>
        <time>2023-11-21T11:25:03Z</time>
      </trkpt>
      <trkpt lat="48.69794" lon="7.17235">
        <ele>396.1</ele>
        <time>2023-11-21T11:25:10Z</time>
      </trkpt>
      <trkpt lat="48.69784" lon="7.1721">
        <ele>395.3</ele>
        <time>2023-11-21T11:25:17Z</time>
      </trkpt>
      <trkpt lat="48.6978" lon="7.17181">
        <ele>394.4</ele>
        <time>2023-11-21T11:25:24Z</time>
      </trkpt>
      <trkpt lat="48.69776" lon="7.17151">
        <ele>393.6</ele>
        <time>2023-11-21T11:25:32Z</time>
      </trkpt>
      <trkpt lat="48.69772" lon="7.17123">
        <ele>393</ele>
        <time>2023-11-21T11:25:39Z</time>
      </trkpt>
      <trkpt lat="48.69764" lon="7.17096">
        <ele>392.3</ele>
        <time>2023-11-21T11:25:45Z</time>
      </trkpt>
      <trkpt lat="48.69757" lon="7.17069">
        <ele>391.6</ele>
        <time>2023-11-21T11:25:51Z</time>
      </trkpt>
      <trkpt lat="48.69748" lon="7.17043">
        <ele>390.8</ele>
        <time>2023-11-21T11:25:58Z</time>
      </trkpt>
      <trkpt lat="48.69739" lon="7.17017">
        <ele>390.3</ele>
        <time>2023-11-21T11:26:04Z</time>
      </trkpt>
      <trkpt lat="48.69732" lon="7.1699">
        <ele>389.8</ele>
        <time>2023-11-21T11:26:10Z</time>
      </trkpt>
      <trkpt lat="48.69725" lon="7.16964">
        <ele>389.2</ele>
        <time>2023-11-21T11:26:16Z</time>
      </trkpt>
      <trkpt lat="48.69715" lon="7.1694">
        <ele>388.5</ele>
        <time>2023-11-21T11:26:22Z</time>
      </trkpt>
      <trkpt lat="48.697" lon="7.16922">
        <ele>388</ele>
        <time>2023-11-21T11:26:28Z</time>
      </trkpt>
      <trkpt lat="48.6968" lon="7.16915">
        <ele>387.9</ele>
        <time>2023-11-21T11:26:35Z</time>
      </trkpt>
      <trkpt lat="48.69663" lon="7.16905">
        <ele>387.6</ele>
        <time>2023-11-21T11:26:41Z</time>
      </trkpt>
      <trkpt lat="48.69645" lon="7.16891">
        <ele>387.1</ele>
        <time>2023-11-21T11:26:47Z</time>
      </trkpt>
      <trkpt lat="48.69628" lon="7.16878">
        <ele>386.8</ele>
        <time>2023-11-21T11:26:53Z</time>
      </trkpt>
      <trkpt lat="48.69612" lon="7.16864">
        <ele>386.7</ele>
        <time>2023-11-21T11:26:59Z</time>
      </trkpt>
      <trkpt lat="48.69596" lon="7.16846">
        <ele>387.1</ele>
        <time>2023-11-21T11:27:05Z</time>
      </trkpt>
      <trkpt lat="48.69581" lon="7.1683">
        <ele>387.8</ele>
        <time>2023-11-21T11:27:11Z</time>
      </trkpt>
      <trkpt lat="48.69566" lon="7.16809">
        <ele>388.8</ele>
        <time>2023-11-21T11:27:18Z</time>
      </trkpt>
      <trkpt lat="48.6955" lon="7.16792">
        <ele>388.8</ele>
        <time>2023-11-21T11:27:24Z</time>
      </trkpt>
      <trkpt lat="48.69533" lon="7.16773">
        <ele>387.5</ele>
        <time>2023-11-21T11:27:30Z</time>
      </trkpt>
      <trkpt lat="48.69517" lon="7.16752">
        <ele>385.6</ele>
        <time>2023-11-21T11:27:36Z</time>
      </trkpt>
      <trkpt lat="48.69504" lon="7.16727">
        <ele>384.7</ele>
        <time>2023-11-21T11:27:42Z</time>
      </trkpt>
      <trkpt lat="48.69491" lon="7.16701">
        <ele>383.5</ele>
        <time>2023-11-21T11:27:48Z</time>
      </trkpt>
      <trkpt lat="48.69481" lon="7.16678">
        <ele>381.1</ele>
        <time>2023-11-21T11:27:54Z</time>
      </trkpt>
      <trkpt lat="48.6948" lon="7.16682">
        <ele>381.1</ele>
        <time>2023-11-21T11:27:56Z</time>
      </trkpt>
      <trkpt lat="48.69482" lon="7.1671">
        <ele>381.9</ele>
        <time>2023-11-21T11:28:03Z</time>
      </trkpt>
      <trkpt lat="48.69485" lon="7.16739">
        <ele>380.5</ele>
        <time>2023-11-21T11:28:10Z</time>
      </trkpt>
      <trkpt lat="48.69487" lon="7.16766">
        <ele>379.4</ele>
        <time>2023-11-21T11:28:16Z</time>
      </trkpt>
      <trkpt lat="48.69489" lon="7.16796">
        <ele>378.3</ele>
        <time>2023-11-21T11:28:23Z</time>
      </trkpt>
      <trkpt lat="48.69488" lon="7.16826">
        <ele>377.5</ele>
        <time>2023-11-21T11:28:30Z</time>
      </trkpt>
      <trkpt lat="48.6948" lon="7.16854">
        <ele>376.6</ele>
        <time>2023-11-21T11:28:37Z</time>
      </trkpt>
      <trkpt lat="48.69468" lon="7.16874">
        <ele>374.7</ele>
        <time>2023-11-21T11:28:44Z</time>
      </trkpt>
      <trkpt lat="48.69466" lon="7.16902">
        <ele>373.6</ele>
        <time>2023-11-21T11:28:52Z</time>
      </trkpt>
      <trkpt lat="48.69464" lon="7.16932">
        <ele>373.5</ele>
        <time>2023-11-21T11:28:59Z</time>
      </trkpt>
      <trkpt lat="48.69447" lon="7.16951">
        <ele>371.9</ele>
        <time>2023-11-21T11:29:07Z</time>
      </trkpt>
      <trkpt lat="48.69428" lon="7.16952">
        <ele>369.1</ele>
        <time>2023-11-21T11:29:14Z</time>
      </trkpt>
      <trkpt lat="48.6941" lon="7.1694">
        <ele>365.5</ele>
        <time>2023-11-21T11:29:22Z</time>
      </trkpt>
      <trkpt lat="48.69394" lon="7.16925">
        <ele>363.2</ele>
        <time>2023-11-21T11:29:31Z</time>
      </trkpt>
      <trkpt lat="48.6938" lon="7.16908">
        <ele>360</ele>
        <time>2023-11-21T11:29:38Z</time>
      </trkpt>
      <trkpt lat="48.69365" lon="7.16883">
        <ele>357.1</ele>
        <time>2023-11-21T11:29:44Z</time>
      </trkpt>
      <trkpt lat="48.69354" lon="7.1686">
        <ele>354.8</ele>
        <time>2023-11-21T11:29:48Z</time>
      </trkpt>
      <trkpt lat="48.6934" lon="7.16837">
        <ele>352.2</ele>
        <time>2023-11-21T11:29:53Z</time>
      </trkpt>
      <trkpt lat="48.6933" lon="7.16813">
        <ele>348.7</ele>
        <time>2023-11-21T11:29:59Z</time>
      </trkpt>
      <trkpt lat="48.69321" lon="7.16787">
        <ele>346.9</ele>
        <time>2023-11-21T11:30:06Z</time>
      </trkpt>
      <trkpt lat="48.69318" lon="7.1676">
        <ele>346.3</ele>
        <time>2023-11-21T11:30:12Z</time>
      </trkpt>
      <trkpt lat="48.69322" lon="7.16729">
        <ele>345.4</ele>
        <time>2023-11-21T11:30:18Z</time>
      </trkpt>
      <trkpt lat="48.69327" lon="7.16701">
        <ele>345.2</ele>
        <time>2023-11-21T11:30:24Z</time>
      </trkpt>
      <trkpt lat="48.69332" lon="7.16672">
        <ele>345.5</ele>
        <time>2023-11-21T11:30:31Z</time>
      </trkpt>
      <trkpt lat="48.6934" lon="7.16644">
        <ele>347.6</ele>
        <time>2023-11-21T11:30:38Z</time>
      </trkpt>
      <trkpt lat="48.6935" lon="7.16618">
        <ele>349</ele>
        <time>2023-11-21T11:30:45Z</time>
      </trkpt>
      <trkpt lat="48.69358" lon="7.16594">
        <ele>350.8</ele>
        <time>2023-11-21T11:30:52Z</time>
      </trkpt>
      <trkpt lat="48.69365" lon="7.16565">
        <ele>352.2</ele>
        <time>2023-11-21T11:30:59Z</time>
      </trkpt>
      <trkpt lat="48.69373" lon="7.16539">
        <ele>353.9</ele>
        <time>2023-11-21T11:31:06Z</time>
      </trkpt>
      <trkpt lat="48.69381" lon="7.16512">
        <ele>355.1</ele>
        <time>2023-11-21T11:31:13Z</time>
      </trkpt>
      <trkpt lat="48.69386" lon="7.16483">
        <ele>355.6</ele>
        <time>2023-11-21T11:31:20Z</time>
      </trkpt>
      <trkpt lat="48.69382" lon="7.16452">
        <ele>354.1</ele>
        <time>2023-11-21T11:31:26Z</time>
      </trkpt>
      <trkpt lat="48.69384" lon="7.16425">
        <ele>354.9</ele>
        <time>2023-11-21T11:31:32Z</time>
      </trkpt>
      <trkpt lat="48.69386" lon="7.16393">
        <ele>355.2</ele>
        <time>2023-11-21T11:31:39Z</time>
      </trkpt>
      <trkpt lat="48.69383" lon="7.16363">
        <ele>355.2</ele>
        <time>2023-11-21T11:31:46Z</time>
      </trkpt>
      <trkpt lat="48.69377" lon="7.16335">
        <ele>354.7</ele>
        <time>2023-11-21T11:31:53Z</time>
      </trkpt>
      <trkpt lat="48.69372" lon="7.16304">
        <ele>355.4</ele>
        <time>2023-11-21T11:32:00Z</time>
      </trkpt>
      <trkpt lat="48.69375" lon="7.16274">
        <ele>357.3</ele>
        <time>2023-11-21T11:32:07Z</time>
      </trkpt>
      <trkpt lat="48.69379" lon="7.1626">
        <ele>358.7</ele>
        <time>2023-11-21T11:32:41Z</time>
      </trkpt>
      <trkpt lat="48.6938" lon="7.16256">
        <ele>359.5</ele>
        <time>2023-11-21T11:32:43Z</time>
      </trkpt>
      <trkpt lat="48.69388" lon="7.16231">
        <ele>362.6</ele>
        <time>2023-11-21T11:32:52Z</time>
      </trkpt>
      <trkpt lat="48.69395" lon="7.16205">
        <ele>366.2</ele>
        <time>2023-11-21T11:32:59Z</time>
      </trkpt>
      <trkpt lat="48.69396" lon="7.16177">
        <ele>367.4</ele>
        <time>2023-11-21T11:33:06Z</time>
      </trkpt>
      <trkpt lat="48.69397" lon="7.16147">
        <ele>367.9</ele>
        <time>2023-11-21T11:33:12Z</time>
      </trkpt>
      <trkpt lat="48.69392" lon="7.16116">
        <ele>367.8</ele>
        <time>2023-11-21T11:33:19Z</time>
      </trkpt>
      <trkpt lat="48.69383" lon="7.16091">
        <ele>367.9</ele>
        <time>2023-11-21T11:33:24Z</time>
      </trkpt>
      <trkpt lat="48.69377" lon="7.16064">
        <ele>368.4</ele>
        <time>2023-11-21T11:33:31Z</time>
      </trkpt>
      <trkpt lat="48.69369" lon="7.1604">
        <ele>368</ele>
        <time>2023-11-21T11:33:40Z</time>
      </trkpt>
      <trkpt lat="48.69351" lon="7.16054">
        <ele>365.6</ele>
        <time>2023-11-21T11:33:48Z</time>
      </trkpt>
      <trkpt lat="48.69336" lon="7.1607">
        <ele>362.4</ele>
        <time>2023-11-21T11:33:55Z</time>
      </trkpt>
      <trkpt lat="48.69319" lon="7.16089">
        <ele>357.9</ele>
        <time>2023-11-21T11:34:02Z</time>
      </trkpt>
      <trkpt lat="48.69304" lon="7.16108">
        <ele>352.8</ele>
        <time>2023-11-21T11:34:09Z</time>
      </trkpt>
      <trkpt lat="48.69289" lon="7.16127">
        <ele>347.7</ele>
        <time>2023-11-21T11:34:16Z</time>
      </trkpt>
      <trkpt lat="48.69279" lon="7.16142">
        <ele>343.5</ele>
        <time>2023-11-21T11:34:22Z</time>
      </trkpt>
      <trkpt lat="48.69279" lon="7.16152">
        <ele>342.8</ele>
        <time>2023-11-21T11:34:24Z</time>
      </trkpt>
      <trkpt lat="48.69283" lon="7.16181">
        <ele>340.6</ele>
        <time>2023-11-21T11:34:32Z</time>
      </trkpt>
      <trkpt lat="48.69291" lon="7.16208">
        <ele>340.3</ele>
        <time>2023-11-21T11:34:39Z</time>
      </trkpt>
      <trkpt lat="48.69297" lon="7.16235">
        <ele>339.5</ele>
        <time>2023-11-21T11:34:46Z</time>
      </trkpt>
      <trkpt lat="48.693" lon="7.16266">
        <ele>337.4</ele>
        <time>2023-11-21T11:34:54Z</time>
      </trkpt>
      <trkpt lat="48.69304" lon="7.16293">
        <ele>336.8</ele>
        <time>2023-11-21T11:35:00Z</time>
      </trkpt>
      <trkpt lat="48.69301" lon="7.16324">
        <ele>333.9</ele>
        <time>2023-11-21T11:35:06Z</time>
      </trkpt>
      <trkpt lat="48.69292" lon="7.16348">
        <ele>330.8</ele>
        <time>2023-11-21T11:35:10Z</time>
      </trkpt>
      <trkpt lat="48.6928" lon="7.16373">
        <ele>327.3</ele>
        <time>2023-11-21T11:35:14Z</time>
      </trkpt>
      <trkpt lat="48.6927" lon="7.16395">
        <ele>323.9</ele>
        <time>2023-11-21T11:35:19Z</time>
      </trkpt>
      <trkpt lat="48.69263" lon="7.16421">
        <ele>321</ele>
        <time>2023-11-21T11:35:24Z</time>
      </trkpt>
      <trkpt lat="48.69254" lon="7.16446">
        <ele>318.1</ele>
        <time>2023-11-21T11:35:30Z</time>
      </trkpt>
      <trkpt lat="48.69248" lon="7.16473">
        <ele>315.2</ele>
        <time>2023-11-21T11:35:36Z</time>
      </trkpt>
      <trkpt lat="48.69243" lon="7.16504">
        <ele>312.5</ele>
        <time>2023-11-21T11:35:42Z</time>
      </trkpt>
      <trkpt lat="48.69234" lon="7.16529">
        <ele>310</ele>
        <time>2023-11-21T11:35:47Z</time>
      </trkpt>
      <trkpt lat="48.69223" lon="7.16551">
        <ele>307.3</ele>
        <time>2023-11-21T11:35:53Z</time>
      </trkpt>
      <trkpt lat="48.69219" lon="7.16555">
        <ele>306.9</ele>
        <time>2023-11-21T11:35:54Z</time>
      </trkpt>
      <trkpt lat="48.69209" lon="7.16581">
        <ele>305.7</ele>
        <time>2023-11-21T11:36:02Z</time>
      </trkpt>
      <trkpt lat="48.69199" lon="7.16606">
        <ele>304.1</ele>
        <time>2023-11-21T11:36:08Z</time>
      </trkpt>
      <trkpt lat="48.69187" lon="7.1663">
        <ele>303.5</ele>
        <time>2023-11-21T11:36:15Z</time>
      </trkpt>
      <trkpt lat="48.6918" lon="7.16656">
        <ele>304</ele>
        <time>2023-11-21T11:36:23Z</time>
      </trkpt>
      <trkpt lat="48.6917" lon="7.1668">
        <ele>304.8</ele>
        <time>2023-11-21T11:36:31Z</time>
      </trkpt>
      <trkpt lat="48.6916" lon="7.16706">
        <ele>306.2</ele>
        <time>2023-11-21T11:36:38Z</time>
      </trkpt>
      <trkpt lat="48.69155" lon="7.16734">
        <ele>306.6</ele>
        <time>2023-11-21T11:36:45Z</time>
      </trkpt>
      <trkpt lat="48.69148" lon="7.16762">
        <ele>306.5</ele>
        <time>2023-11-21T11:36:54Z</time>
      </trkpt>
      <trkpt lat="48.6914" lon="7.16787">
        <ele>306.7</ele>
        <time>2023-11-21T11:37:00Z</time>
      </trkpt>
      <trkpt lat="48.69131" lon="7.16813">
        <ele>307.3</ele>
        <time>2023-11-21T11:37:05Z</time>
      </trkpt>
      <trkpt lat="48.69122" lon="7.16841">
        <ele>308.6</ele>
        <time>2023-11-21T11:37:11Z</time>
      </trkpt>
      <trkpt lat="48.69114" lon="7.1687">
        <ele>309.5</ele>
        <time>2023-11-21T11:37:17Z</time>
      </trkpt>
      <trkpt lat="48.69105" lon="7.16895">
        <ele>309.1</ele>
        <time>2023-11-21T11:37:23Z</time>
      </trkpt>
      <trkpt lat="48.69094" lon="7.1692">
        <ele>307.3</ele>
        <time>2023-11-21T11:37:30Z</time>
      </trkpt>
      <trkpt lat="48.69084" lon="7.16944">
        <ele>308.9</ele>
        <time>2023-11-21T11:37:36Z</time>
      </trkpt>
      <trkpt lat="48.69068" lon="7.16961">
        <ele>310.1</ele>
        <time>2023-11-21T11:37:43Z</time>
      </trkpt>
      <trkpt lat="48.69056" lon="7.16983">
        <ele>310.3</ele>
        <time>2023-11-21T11:37:49Z</time>
      </trkpt>
      <trkpt lat="48.69049" lon="7.17011">
        <ele>311.1</ele>
        <time>2023-11-21T11:37:56Z</time>
      </trkpt>
      <trkpt lat="48.69042" lon="7.17039">
        <ele>311.2</ele>
        <time>2023-11-21T11:38:02Z</time>
      </trkpt>
      <trkpt lat="48.69032" lon="7.17063">
        <ele>311.9</ele>
        <time>2023-11-21T11:38:07Z</time>
      </trkpt>
      <trkpt lat="48.6902" lon="7.17087">
        <ele>311.9</ele>
        <time>2023-11-21T11:38:13Z</time>
      </trkpt>
      <trkpt lat="48.6901" lon="7.17113">
        <ele>311.6</ele>
        <time>2023-11-21T11:38:19Z</time>
      </trkpt>
      <trkpt lat="48.69003" lon="7.17138">
        <ele>311.4</ele>
        <time>2023-11-21T11:38:25Z</time>
      </trkpt>
      <trkpt lat="48.68996" lon="7.17165">
        <ele>311.1</ele>
        <time>2023-11-21T11:38:32Z</time>
      </trkpt>
      <trkpt lat="48.68988" lon="7.17192">
        <ele>311.4</ele>
        <time>2023-11-21T11:38:38Z</time>
      </trkpt>
      <trkpt lat="48.68978" lon="7.17216">
        <ele>311</ele>
        <time>2023-11-21T11:38:43Z</time>
      </trkpt>
      <trkpt lat="48.68968" lon="7.17242">
        <ele>309.6</ele>
        <time>2023-11-21T11:38:49Z</time>
      </trkpt>
      <trkpt lat="48.68957" lon="7.17266">
        <ele>308.5</ele>
        <time>2023-11-21T11:38:55Z</time>
      </trkpt>
      <trkpt lat="48.68944" lon="7.1729">
        <ele>306.6</ele>
        <time>2023-11-21T11:39:01Z</time>
      </trkpt>
      <trkpt lat="48.68932" lon="7.17316">
        <ele>305.7</ele>
        <time>2023-11-21T11:39:08Z</time>
      </trkpt>
      <trkpt lat="48.6893" lon="7.17344">
        <ele>305</ele>
        <time>2023-11-21T11:39:14Z</time>
      </trkpt>
      <trkpt lat="48.68925" lon="7.1737">
        <ele>304</ele>
        <time>2023-11-21T11:39:22Z</time>
      </trkpt>
      <trkpt lat="48.68921" lon="7.17397">
        <ele>304.2</ele>
        <time>2023-11-21T11:39:30Z</time>
      </trkpt>
      <trkpt lat="48.68912" lon="7.17422">
        <ele>303.4</ele>
        <time>2023-11-21T11:39:37Z</time>
      </trkpt>
      <trkpt lat="48.68902" lon="7.17447">
        <ele>304.3</ele>
        <time>2023-11-21T11:39:44Z</time>
      </trkpt>
      <trkpt lat="48.68891" lon="7.1747">
        <ele>304.9</ele>
        <time>2023-11-21T11:39:51Z</time>
      </trkpt>
      <trkpt lat="48.68877" lon="7.1749">
        <ele>305.4</ele>
        <time>2023-11-21T11:39:57Z</time>
      </trkpt>
      <trkpt lat="48.68862" lon="7.17511">
        <ele>307</ele>
        <time>2023-11-21T11:40:05Z</time>
      </trkpt>
      <trkpt lat="48.68847" lon="7.1753">
        <ele>307.3</ele>
        <time>2023-11-21T11:40:12Z</time>
      </trkpt>
      <trkpt lat="48.68844" lon="7.17536">
        <ele>307.6</ele>
        <time>2023-11-21T11:40:16Z</time>
      </trkpt>
      <trkpt lat="48.68844" lon="7.17543">
        <ele>308.2</ele>
        <time>2023-11-21T11:40:21Z</time>
      </trkpt>
      <trkpt lat="48.68844" lon="7.17545">
        <ele>308.7</ele>
        <time>2023-11-21T11:40:23Z</time>
      </trkpt>
      <trkpt lat="48.68843" lon="7.17549">
        <ele>308.8</ele>
        <time>2023-11-21T11:40:28Z</time>
      </trkpt>
      <trkpt lat="48.68843" lon="7.17549">
        <ele>309.4</ele>
        <time>2023-11-21T11:40:30Z</time>
      </trkpt>
      <trkpt lat="48.68844" lon="7.17551">
        <ele>309.4</ele>
        <time>2023-11-21T11:40:32Z</time>
      </trkpt>
      <trkpt lat="48.68844" lon="7.17551">
        <ele>309.4</ele>
        <time>2023-11-21T11:40:34Z</time>
      </trkpt>
      <trkpt lat="48.68845" lon="7.17554">
        <ele>310.4</ele>
        <time>2023-11-21T11:40:38Z</time>
      </trkpt>
      <trkpt lat="48.68845" lon="7.17556">
        <ele>310.4</ele>
        <time>2023-11-21T11:40:40Z</time>
      </trkpt>
      <trkpt lat="48.68845" lon="7.17558">
        <ele>311</ele>
        <time>2023-11-21T11:40:42Z</time>
      </trkpt>
      <trkpt lat="48.68846" lon="7.1756">
        <ele>311.1</ele>
        <time>2023-11-21T11:40:45Z</time>
      </trkpt>
      <trkpt lat="48.68847" lon="7.17564">
        <ele>312.1</ele>
        <time>2023-11-21T11:40:48Z</time>
      </trkpt>
      <trkpt lat="48.68849" lon="7.17566">
        <ele>312.1</ele>
        <time>2023-11-21T11:40:51Z</time>
      </trkpt>
      <trkpt lat="48.68851" lon="7.17569">
        <ele>313.2</ele>
        <time>2023-11-21T11:40:54Z</time>
      </trkpt>
      <trkpt lat="48.68851" lon="7.1757">
        <ele>313.2</ele>
        <time>2023-11-21T11:40:55Z</time>
      </trkpt>
      <trkpt lat="48.68847" lon="7.17569">
        <ele>312.8</ele>
        <time>2023-11-21T11:41:02Z</time>
      </trkpt>
      <trkpt lat="48.68846" lon="7.17569">
        <ele>312.4</ele>
        <time>2023-11-21T11:41:03Z</time>
      </trkpt>
      <trkpt lat="48.68833" lon="7.17561">
        <ele>309.3</ele>
        <time>2023-11-21T11:41:12Z</time>
      </trkpt>
      <trkpt lat="48.68833" lon="7.17561">
        <ele>309.3</ele>
        <time>2023-11-21T11:41:13Z</time>
      </trkpt>
      <trkpt lat="48.68833" lon="7.17561">
        <ele>309.3</ele>
        <time>2023-11-21T11:41:15Z</time>
      </trkpt>
      <trkpt lat="48.68834" lon="7.17562">
        <ele>309.4</ele>
        <time>2023-11-21T11:41:17Z</time>
      </trkpt>
      <trkpt lat="48.68834" lon="7.17563">
        <ele>309.9</ele>
        <time>2023-11-21T11:41:20Z</time>
      </trkpt>
      <trkpt lat="48.68837" lon="7.17565">
        <ele>310.5</ele>
        <time>2023-11-21T11:41:25Z</time>
      </trkpt>
      <trkpt lat="48.6884" lon="7.1757">
        <ele>311.6</ele>
        <time>2023-11-21T11:41:30Z</time>
      </trkpt>
      <trkpt lat="48.68843" lon="7.1757">
        <ele>312.2</ele>
        <time>2023-11-21T11:41:34Z</time>
      </trkpt>
      <trkpt lat="48.68845" lon="7.17571">
        <ele>313.2</ele>
        <time>2023-11-21T11:41:37Z</time>
      </trkpt>
      <trkpt lat="48.68847" lon="7.17572">
        <ele>313.7</ele>
        <time>2023-11-21T11:41:40Z</time>
      </trkpt>
      <trkpt lat="48.68848" lon="7.17573">
        <ele>313.7</ele>
        <time>2023-11-21T11:41:43Z</time>
      </trkpt>
      <trkpt lat="48.6885" lon="7.17576">
        <ele>314.7</ele>
        <time>2023-11-21T11:41:47Z</time>
      </trkpt>
      <trkpt lat="48.68837" lon="7.17561">
        <ele>310.2</ele>
        <time>2023-11-21T11:42:03Z</time>
      </trkpt>
      <trkpt lat="48.68836" lon="7.1756">
        <ele>310.3</ele>
        <time>2023-11-21T11:42:05Z</time>
      </trkpt>
      <trkpt lat="48.68838" lon="7.1756">
        <ele>310.3</ele>
        <time>2023-11-21T11:42:11Z</time>
      </trkpt>
      <trkpt lat="48.6884" lon="7.17563">
        <ele>311.4</ele>
        <time>2023-11-21T11:42:16Z</time>
      </trkpt>
      <trkpt lat="48.68841" lon="7.17564">
        <ele>311.4</ele>
        <time>2023-11-21T11:42:17Z</time>
      </trkpt>
      <trkpt lat="48.68844" lon="7.17567">
        <ele>312.9</ele>
        <time>2023-11-21T11:42:24Z</time>
      </trkpt>
      <trkpt lat="48.68845" lon="7.17569">
        <ele>313</ele>
        <time>2023-11-21T11:42:26Z</time>
      </trkpt>
      <trkpt lat="48.68848" lon="7.17572">
        <ele>314</ele>
        <time>2023-11-21T11:42:30Z</time>
      </trkpt>
      <trkpt lat="48.68849" lon="7.17577">
        <ele>314.5</ele>
        <time>2023-11-21T11:42:35Z</time>
      </trkpt>
      <trkpt lat="48.6885" lon="7.17579">
        <ele>315</ele>
        <time>2023-11-21T11:42:36Z</time>
      </trkpt>
      <trkpt lat="48.68835" lon="7.17566">
        <ele>310.9</ele>
        <time>2023-11-21T11:42:50Z</time>
      </trkpt>
      <trkpt lat="48.68832" lon="7.1756">
        <ele>309.4</ele>
        <time>2023-11-21T11:42:54Z</time>
      </trkpt>
      <trkpt lat="48.68832" lon="7.1756">
        <ele>309.4</ele>
        <time>2023-11-21T11:42:56Z</time>
      </trkpt>
      <trkpt lat="48.68837" lon="7.17567">
        <ele>311.6</ele>
        <time>2023-11-21T11:43:10Z</time>
      </trkpt>
      <trkpt lat="48.6884" lon="7.17568">
        <ele>312.3</ele>
        <time>2023-11-21T11:43:14Z</time>
      </trkpt>
      <trkpt lat="48.68842" lon="7.17568">
        <ele>312.8</ele>
        <time>2023-11-21T11:43:18Z</time>
      </trkpt>
      <trkpt lat="48.68843" lon="7.17569">
        <ele>312.8</ele>
        <time>2023-11-21T11:43:21Z</time>
      </trkpt>
      <trkpt lat="48.68847" lon="7.17571">
        <ele>314.3</ele>
        <time>2023-11-21T11:43:26Z</time>
      </trkpt>
      <trkpt lat="48.68849" lon="7.17574">
        <ele>314.3</ele>
        <time>2023-11-21T11:43:30Z</time>
      </trkpt>
      <trkpt lat="48.68833" lon="7.17557">
        <ele>309.7</ele>
        <time>2023-11-21T11:43:45Z</time>
      </trkpt>
      <trkpt lat="48.68831" lon="7.17555">
        <ele>309.2</ele>
        <time>2023-11-21T11:43:47Z</time>
      </trkpt>
      <trkpt lat="48.68831" lon="7.17555">
        <ele>309.2</ele>
        <time>2023-11-21T11:43:48Z</time>
      </trkpt>
      <trkpt lat="48.68831" lon="7.17557">
        <ele>309.2</ele>
        <time>2023-11-21T11:43:52Z</time>
      </trkpt>
      <trkpt lat="48.68832" lon="7.17558">
        <ele>309.7</ele>
        <time>2023-11-21T11:43:54Z</time>
      </trkpt>
      <trkpt lat="48.68833" lon="7.17559">
        <ele>310.4</ele>
        <time>2023-11-21T11:43:57Z</time>
      </trkpt>
      <trkpt lat="48.68834" lon="7.17562">
        <ele>310.4</ele>
        <time>2023-11-21T11:43:59Z</time>
      </trkpt>
      <trkpt lat="48.68837" lon="7.17563">
        <ele>311.5</ele>
        <time>2023-11-21T11:44:02Z</time>
      </trkpt>
      <trkpt lat="48.68843" lon="7.17568">
        <ele>313.2</ele>
        <time>2023-11-21T11:44:10Z</time>
      </trkpt>
      <trkpt lat="48.68846" lon="7.17572">
        <ele>314.2</ele>
        <time>2023-11-21T11:44:14Z</time>
      </trkpt>
      <trkpt lat="48.68847" lon="7.17573">
        <ele>314.6</ele>
        <time>2023-11-21T11:44:15Z</time>
      </trkpt>
      <trkpt lat="48.68848" lon="7.17574">
        <ele>314.7</ele>
        <time>2023-11-21T11:44:17Z</time>
      </trkpt>
      <trkpt lat="48.6885" lon="7.17577">
        <ele>315.7</ele>
        <time>2023-11-21T11:44:19Z</time>
      </trkpt>
      <trkpt lat="48.68849" lon="7.17579">
        <ele>315.7</ele>
        <time>2023-11-21T11:44:22Z</time>
      </trkpt>
      <trkpt lat="48.68834" lon="7.17564">
        <ele>311.2</ele>
        <time>2023-11-21T11:44:37Z</time>
      </trkpt>
      <trkpt lat="48.68833" lon="7.17562">
        <ele>311.2</ele>
        <time>2023-11-21T11:44:38Z</time>
      </trkpt>
      <trkpt lat="48.68832" lon="7.17561">
        <ele>310.1</ele>
        <time>2023-11-21T11:44:40Z</time>
      </trkpt>
      <trkpt lat="48.68832" lon="7.17561">
        <ele>310.1</ele>
        <time>2023-11-21T11:44:43Z</time>
      </trkpt>
      <trkpt lat="48.68834" lon="7.17563">
        <ele>311.3</ele>
        <time>2023-11-21T11:44:47Z</time>
      </trkpt>
      <trkpt lat="48.68836" lon="7.17565">
        <ele>311.9</ele>
        <time>2023-11-21T11:44:50Z</time>
      </trkpt>
      <trkpt lat="48.68837" lon="7.17566">
        <ele>311.9</ele>
        <time>2023-11-21T11:44:52Z</time>
      </trkpt>
      <trkpt lat="48.68842" lon="7.17568">
        <ele>313.6</ele>
        <time>2023-11-21T11:44:58Z</time>
      </trkpt>
      <trkpt lat="48.68843" lon="7.17568">
        <ele>313.6</ele>
        <time>2023-11-21T11:45:00Z</time>
      </trkpt>
      <trkpt lat="48.68845" lon="7.17568">
        <ele>314.1</ele>
        <time>2023-11-21T11:45:04Z</time>
      </trkpt>
      <trkpt lat="48.68848" lon="7.17571">
        <ele>315.1</ele>
        <time>2023-11-21T11:45:08Z</time>
      </trkpt>
      <trkpt lat="48.68849" lon="7.17573">
        <ele>315.1</ele>
        <time>2023-11-21T11:45:09Z</time>
      </trkpt>
      <trkpt lat="48.68849" lon="7.17573">
        <ele>315.1</ele>
        <time>2023-11-21T11:45:10Z</time>
      </trkpt>
      <trkpt lat="48.68834" lon="7.17557">
        <ele>310.6</ele>
        <time>2023-11-21T11:45:27Z</time>
      </trkpt>
      <trkpt lat="48.68832" lon="7.17555">
        <ele>310</ele>
        <time>2023-11-21T11:45:29Z</time>
      </trkpt>
      <trkpt lat="48.68833" lon="7.1756">
        <ele>310.5</ele>
        <time>2023-11-21T11:45:38Z</time>
      </trkpt>
      <trkpt lat="48.68833" lon="7.1756">
        <ele>311.1</ele>
        <time>2023-11-21T11:45:40Z</time>
      </trkpt>
      <trkpt lat="48.68836" lon="7.17563">
        <ele>312.3</ele>
        <time>2023-11-21T11:45:44Z</time>
      </trkpt>
      <trkpt lat="48.68837" lon="7.17563">
        <ele>312.3</ele>
        <time>2023-11-21T11:45:46Z</time>
      </trkpt>
      <trkpt lat="48.68839" lon="7.17566">
        <ele>312.9</ele>
        <time>2023-11-21T11:45:49Z</time>
      </trkpt>
      <trkpt lat="48.6884" lon="7.17569">
        <ele>313.4</ele>
        <time>2023-11-21T11:45:52Z</time>
      </trkpt>
      <trkpt lat="48.68845" lon="7.17572">
        <ele>315</ele>
        <time>2023-11-21T11:45:58Z</time>
      </trkpt>
      <trkpt lat="48.68847" lon="7.17574">
        <ele>315</ele>
        <time>2023-11-21T11:46:01Z</time>
      </trkpt>
      <trkpt lat="48.68832" lon="7.17562">
        <ele>310.7</ele>
        <time>2023-11-21T11:46:19Z</time>
      </trkpt>
      <trkpt lat="48.68827" lon="7.17555">
        <ele>309.1</ele>
        <time>2023-11-21T11:46:23Z</time>
      </trkpt>
      <trkpt lat="48.68825" lon="7.17554">
        <ele>309.1</ele>
        <time>2023-11-21T11:46:30Z</time>
      </trkpt>
      <trkpt lat="48.68827" lon="7.17557">
        <ele>309.2</ele>
        <time>2023-11-21T11:46:33Z</time>
      </trkpt>
      <trkpt lat="48.68828" lon="7.1756">
        <ele>310.3</ele>
        <time>2023-11-21T11:46:35Z</time>
      </trkpt>
      <trkpt lat="48.68832" lon="7.17564">
        <ele>311.4</ele>
        <time>2023-11-21T11:46:39Z</time>
      </trkpt>
      <trkpt lat="48.68835" lon="7.17567">
        <ele>312.5</ele>
        <time>2023-11-21T11:46:41Z</time>
      </trkpt>
      <trkpt lat="48.68839" lon="7.1757">
        <ele>313.8</ele>
        <time>2023-11-21T11:46:46Z</time>
      </trkpt>
      <trkpt lat="48.6884" lon="7.17571">
        <ele>314.3</ele>
        <time>2023-11-21T11:46:47Z</time>
      </trkpt>
      <trkpt lat="48.68841" lon="7.17572">
        <ele>314.8</ele>
        <time>2023-11-21T11:46:49Z</time>
      </trkpt>
      <trkpt lat="48.68843" lon="7.17573">
        <ele>314.9</ele>
        <time>2023-11-21T11:46:51Z</time>
      </trkpt>
      <trkpt lat="48.68846" lon="7.17576">
        <ele>315.9</ele>
        <time>2023-11-21T11:46:54Z</time>
      </trkpt>
      <trkpt lat="48.68846" lon="7.17577">
        <ele>315.9</ele>
        <time>2023-11-21T11:46:55Z</time>
      </trkpt>
      <trkpt lat="48.68847" lon="7.17577">
        <ele>316.4</ele>
        <time>2023-11-21T11:46:56Z</time>
      </trkpt>
      <trkpt lat="48.68833" lon="7.17563">
        <ele>312.3</ele>
        <time>2023-11-21T11:47:10Z</time>
      </trkpt>
      <trkpt lat="48.68829" lon="7.17556">
        <ele>310.1</ele>
        <time>2023-11-21T11:47:15Z</time>
      </trkpt>
      <trkpt lat="48.68831" lon="7.17558">
        <ele>311.2</ele>
        <time>2023-11-21T11:47:21Z</time>
      </trkpt>
      <trkpt lat="48.68834" lon="7.17561">
        <ele>311.9</ele>
        <time>2023-11-21T11:47:25Z</time>
      </trkpt>
      <trkpt lat="48.68841" lon="7.17568">
        <ele>314.1</ele>
        <time>2023-11-21T11:47:35Z</time>
      </trkpt>
      <trkpt lat="48.68843" lon="7.17572">
        <ele>315.1</ele>
        <time>2023-11-21T11:47:39Z</time>
      </trkpt>
      <trkpt lat="48.68845" lon="7.17575">
        <ele>316.1</ele>
        <time>2023-11-21T11:47:42Z</time>
      </trkpt>
      <trkpt lat="48.68846" lon="7.17576">
        <ele>316.2</ele>
        <time>2023-11-21T11:47:44Z</time>
      </trkpt>
      <trkpt lat="48.68848" lon="7.17578">
        <ele>316.7</ele>
        <time>2023-11-21T11:47:47Z</time>
      </trkpt>
      <trkpt lat="48.68849" lon="7.17578">
        <ele>316.7</ele>
        <time>2023-11-21T11:47:48Z</time>
      </trkpt>
      <trkpt lat="48.68849" lon="7.17578">
        <ele>316.7</ele>
        <time>2023-11-21T11:47:49Z</time>
      </trkpt>
      <trkpt lat="48.68833" lon="7.17562">
        <ele>312.1</ele>
        <time>2023-11-21T11:48:04Z</time>
      </trkpt>
      <trkpt lat="48.68831" lon="7.17557">
        <ele>311.1</ele>
        <time>2023-11-21T11:48:07Z</time>
      </trkpt>
      <trkpt lat="48.68834" lon="7.17561">
        <ele>312.2</ele>
        <time>2023-11-21T11:48:15Z</time>
      </trkpt>
      <trkpt lat="48.68836" lon="7.17563">
        <ele>313.3</ele>
        <time>2023-11-21T11:48:17Z</time>
      </trkpt>
      <trkpt lat="48.68851" lon="7.17576">
        <ele>317.4</ele>
        <time>2023-11-21T11:48:35Z</time>
      </trkpt>
      <trkpt lat="48.68854" lon="7.1758">
        <ele>318.5</ele>
        <time>2023-11-21T11:48:39Z</time>
      </trkpt>
      <trkpt lat="48.68854" lon="7.17581">
        <ele>318.5</ele>
        <time>2023-11-21T11:48:41Z</time>
      </trkpt>
      <trkpt lat="48.68835" lon="7.17589">
        <ele>315.4</ele>
        <time>2023-11-21T11:48:53Z</time>
      </trkpt>
      <trkpt lat="48.68823" lon="7.17608">
        <ele>315</ele>
        <time>2023-11-21T11:49:08Z</time>
      </trkpt>
      <trkpt lat="48.68809" lon="7.17627">
        <ele>315.5</ele>
        <time>2023-11-21T11:49:18Z</time>
      </trkpt>
      <trkpt lat="48.68794" lon="7.17647">
        <ele>314.7</ele>
        <time>2023-11-21T11:49:29Z</time>
      </trkpt>
      <trkpt lat="48.68782" lon="7.17668">
        <ele>315.2</ele>
        <time>2023-11-21T11:49:42Z</time>
      </trkpt>
      <trkpt lat="48.68779" lon="7.17675">
        <ele>316.2</ele>
        <time>2023-11-21T11:49:46Z</time>
      </trkpt>
      <trkpt lat="48.68766" lon="7.17696">
        <ele>318.6</ele>
        <time>2023-11-21T11:49:59Z</time>
      </trkpt>
      <trkpt lat="48.68756" lon="7.1771">
        <ele>319.6</ele>
        <time>2023-11-21T11:50:07Z</time>
      </trkpt>
      <trkpt lat="48.68741" lon="7.17725">
        <ele>320.8</ele>
        <time>2023-11-21T11:50:18Z</time>
      </trkpt>
      <trkpt lat="48.68722" lon="7.17729">
        <ele>317.2</ele>
        <time>2023-11-21T11:50:24Z</time>
      </trkpt>
      <trkpt lat="48.68705" lon="7.1774">
        <ele>313.2</ele>
        <time>2023-11-21T11:50:31Z</time>
      </trkpt>
      <trkpt lat="48.68688" lon="7.17761">
        <ele>313.3</ele>
        <time>2023-11-21T11:50:39Z</time>
      </trkpt>
      <trkpt lat="48.68677" lon="7.17782">
        <ele>311.1</ele>
        <time>2023-11-21T11:50:45Z</time>
      </trkpt>
      <trkpt lat="48.68668" lon="7.17806">
        <ele>312</ele>
        <time>2023-11-21T11:50:52Z</time>
      </trkpt>
      <trkpt lat="48.68655" lon="7.1783">
        <ele>308.3</ele>
        <time>2023-11-21T11:51:00Z</time>
      </trkpt>
      <trkpt lat="48.68643" lon="7.17852">
        <ele>303.3</ele>
        <time>2023-11-21T11:51:06Z</time>
      </trkpt>
      <trkpt lat="48.68634" lon="7.17876">
        <ele>300.1</ele>
        <time>2023-11-21T11:51:13Z</time>
      </trkpt>
      <trkpt lat="48.68629" lon="7.17905">
        <ele>298.4</ele>
        <time>2023-11-21T11:51:23Z</time>
      </trkpt>
      <trkpt lat="48.68619" lon="7.17929">
        <ele>295.4</ele>
        <time>2023-11-21T11:51:30Z</time>
      </trkpt>
      <trkpt lat="48.68612" lon="7.17945">
        <ele>293</ele>
        <time>2023-11-21T11:51:34Z</time>
      </trkpt>
      <trkpt lat="48.68606" lon="7.17942">
        <ele>290.5</ele>
        <time>2023-11-21T11:51:38Z</time>
      </trkpt>
      <trkpt lat="48.68604" lon="7.17968">
        <ele>289.3</ele>
        <time>2023-11-21T11:51:45Z</time>
      </trkpt>
      <trkpt lat="48.68607" lon="7.17999">
        <ele>290.2</ele>
        <time>2023-11-21T11:51:51Z</time>
      </trkpt>
      <trkpt lat="48.68611" lon="7.18028">
        <ele>290.5</ele>
        <time>2023-11-21T11:51:57Z</time>
      </trkpt>
      <trkpt lat="48.68615" lon="7.18058">
        <ele>291.5</ele>
        <time>2023-11-21T11:52:04Z</time>
      </trkpt>
      <trkpt lat="48.68618" lon="7.1809">
        <ele>291.6</ele>
        <time>2023-11-21T11:52:10Z</time>
      </trkpt>
      <trkpt lat="48.6862" lon="7.1812">
        <ele>292.7</ele>
        <time>2023-11-21T11:52:16Z</time>
      </trkpt>
      <trkpt lat="48.68619" lon="7.18149">
        <ele>291.3</ele>
        <time>2023-11-21T11:52:22Z</time>
      </trkpt>
      <trkpt lat="48.68617" lon="7.18177">
        <ele>290.3</ele>
        <time>2023-11-21T11:52:28Z</time>
      </trkpt>
      <trkpt lat="48.68616" lon="7.18205">
        <ele>290.2</ele>
        <time>2023-11-21T11:52:34Z</time>
      </trkpt>
      <trkpt lat="48.68611" lon="7.18234">
        <ele>287</ele>
        <time>2023-11-21T11:52:41Z</time>
      </trkpt>
      <trkpt lat="48.68613" lon="7.18262">
        <ele>286.7</ele>
        <time>2023-11-21T11:52:47Z</time>
      </trkpt>
      <trkpt lat="48.68615" lon="7.1829">
        <ele>287.1</ele>
        <time>2023-11-21T11:52:53Z</time>
      </trkpt>
      <trkpt lat="48.68616" lon="7.18319">
        <ele>285.3</ele>
        <time>2023-11-21T11:52:59Z</time>
      </trkpt>
      <trkpt lat="48.68614" lon="7.18347">
        <ele>282.1</ele>
        <time>2023-11-21T11:53:05Z</time>
      </trkpt>
      <trkpt lat="48.68609" lon="7.18375">
        <ele>280</ele>
        <time>2023-11-21T11:53:12Z</time>
      </trkpt>
      <trkpt lat="48.68608" lon="7.18402">
        <ele>277.1</ele>
        <time>2023-11-21T11:53:18Z</time>
      </trkpt>
      <trkpt lat="48.68609" lon="7.18433">
        <ele>277</ele>
        <time>2023-11-21T11:53:25Z</time>
      </trkpt>
      <trkpt lat="48.68612" lon="7.1846">
        <ele>276.7</ele>
        <time>2023-11-21T11:53:33Z</time>
      </trkpt>
      <trkpt lat="48.68617" lon="7.18487">
        <ele>279.1</ele>
        <time>2023-11-21T11:53:43Z</time>
      </trkpt>
      <trkpt lat="48.68626" lon="7.18512">
        <ele>282.6</ele>
        <time>2023-11-21T11:53:51Z</time>
      </trkpt>
      <trkpt lat="48.68634" lon="7.1854">
        <ele>286.5</ele>
        <time>2023-11-21T11:53:59Z</time>
      </trkpt>
      <trkpt lat="48.68641" lon="7.18566">
        <ele>290.8</ele>
        <time>2023-11-21T11:54:06Z</time>
      </trkpt>
      <trkpt lat="48.68642" lon="7.186">
        <ele>290.1</ele>
        <time>2023-11-21T11:54:12Z</time>
      </trkpt>
      <trkpt lat="48.6865" lon="7.18626">
        <ele>293.9</ele>
        <time>2023-11-21T11:54:20Z</time>
      </trkpt>
      <trkpt lat="48.68657" lon="7.18654">
        <ele>295.4</ele>
        <time>2023-11-21T11:54:26Z</time>
      </trkpt>
      <trkpt lat="48.68656" lon="7.18682">
        <ele>294.5</ele>
        <time>2023-11-21T11:54:32Z</time>
      </trkpt>
      <trkpt lat="48.6866" lon="7.18709">
        <ele>294.7</ele>
        <time>2023-11-21T11:54:40Z</time>
      </trkpt>
      <trkpt lat="48.68655" lon="7.18736">
        <ele>291.4</ele>
        <time>2023-11-21T11:54:47Z</time>
      </trkpt>
      <trkpt lat="48.68647" lon="7.18764">
        <ele>288.1</ele>
        <time>2023-11-21T11:54:54Z</time>
      </trkpt>
      <trkpt lat="48.68644" lon="7.18792">
        <ele>287</ele>
        <time>2023-11-21T11:55:01Z</time>
      </trkpt>
      <trkpt lat="48.68646" lon="7.18819">
        <ele>286.9</ele>
        <time>2023-11-21T11:55:08Z</time>
      </trkpt>
      <trkpt lat="48.68649" lon="7.18849">
        <ele>289.9</ele>
        <time>2023-11-21T11:55:16Z</time>
      </trkpt>
      <trkpt lat="48.68657" lon="7.18879">
        <ele>294.3</ele>
        <time>2023-11-21T11:55:24Z</time>
      </trkpt>
      <trkpt lat="48.68662" lon="7.18907">
        <ele>296</ele>
        <time>2023-11-21T11:55:31Z</time>
      </trkpt>
      <trkpt lat="48.68666" lon="7.18934">
        <ele>300.2</ele>
        <time>2023-11-21T11:55:39Z</time>
      </trkpt>
      <trkpt lat="48.68673" lon="7.1896">
        <ele>303.5</ele>
        <time>2023-11-21T11:55:46Z</time>
      </trkpt>
      <trkpt lat="48.68681" lon="7.18986">
        <ele>307.9</ele>
        <time>2023-11-21T11:55:53Z</time>
      </trkpt>
      <trkpt lat="48.6869" lon="7.19012">
        <ele>312</ele>
        <time>2023-11-21T11:56:00Z</time>
      </trkpt>
      <trkpt lat="48.68698" lon="7.19039">
        <ele>317.2</ele>
        <time>2023-11-21T11:56:07Z</time>
      </trkpt>
      <trkpt lat="48.68704" lon="7.19068">
        <ele>319.8</ele>
        <time>2023-11-21T11:56:14Z</time>
      </trkpt>
      <trkpt lat="48.68711" lon="7.19094">
        <ele>324</ele>
        <time>2023-11-21T11:56:21Z</time>
      </trkpt>
      <trkpt lat="48.68721" lon="7.19118">
        <ele>327.7</ele>
        <time>2023-11-21T11:56:28Z</time>
      </trkpt>
      <trkpt lat="48.6873" lon="7.19147">
        <ele>329.4</ele>
        <time>2023-11-21T11:56:35Z</time>
      </trkpt>
      <trkpt lat="48.6874" lon="7.19175">
        <ele>331.3</ele>
        <time>2023-11-21T11:56:42Z</time>
      </trkpt>
      <trkpt lat="48.6875" lon="7.19198">
        <ele>332.2</ele>
        <time>2023-11-21T11:56:48Z</time>
      </trkpt>
      <trkpt lat="48.68758" lon="7.19225">
        <ele>331.4</ele>
        <time>2023-11-21T11:56:55Z</time>
      </trkpt>
      <trkpt lat="48.68766" lon="7.19253">
        <ele>327.9</ele>
        <time>2023-11-21T11:57:02Z</time>
      </trkpt>
      <trkpt lat="48.68777" lon="7.19277">
        <ele>324.7</ele>
        <time>2023-11-21T11:57:08Z</time>
      </trkpt>
      <trkpt lat="48.68791" lon="7.19298">
        <ele>322.4</ele>
        <time>2023-11-21T11:57:14Z</time>
      </trkpt>
      <trkpt lat="48.68806" lon="7.19315">
        <ele>321.3</ele>
        <time>2023-11-21T11:57:19Z</time>
      </trkpt>
      <trkpt lat="48.6882" lon="7.19337">
        <ele>317.1</ele>
        <time>2023-11-21T11:57:25Z</time>
      </trkpt>
      <trkpt lat="48.68836" lon="7.19356">
        <ele>314.8</ele>
        <time>2023-11-21T11:57:32Z</time>
      </trkpt>
      <trkpt lat="48.68853" lon="7.19368">
        <ele>315.2</ele>
        <time>2023-11-21T11:57:38Z</time>
      </trkpt>
      <trkpt lat="48.68868" lon="7.19387">
        <ele>310.9</ele>
        <time>2023-11-21T11:57:44Z</time>
      </trkpt>
      <trkpt lat="48.68883" lon="7.19404">
        <ele>308</ele>
        <time>2023-11-21T11:57:51Z</time>
      </trkpt>
      <trkpt lat="48.68902" lon="7.19412">
        <ele>308.6</ele>
        <time>2023-11-21T11:57:59Z</time>
      </trkpt>
      <trkpt lat="48.68922" lon="7.19424">
        <ele>308.9</ele>
        <time>2023-11-21T11:58:07Z</time>
      </trkpt>
      <trkpt lat="48.68939" lon="7.19436">
        <ele>308.5</ele>
        <time>2023-11-21T11:58:12Z</time>
      </trkpt>
      <trkpt lat="48.68958" lon="7.19432">
        <ele>311.8</ele>
        <time>2023-11-21T11:58:19Z</time>
      </trkpt>
      <trkpt lat="48.68975" lon="7.19427">
        <ele>312.9</ele>
        <time>2023-11-21T11:58:29Z</time>
      </trkpt>
      <trkpt lat="48.68978" lon="7.19432">
        <ele>312</ele>
        <time>2023-11-21T11:58:31Z</time>
      </trkpt>
      <trkpt lat="48.68994" lon="7.19449">
        <ele>308</ele>
        <time>2023-11-21T11:58:39Z</time>
      </trkpt>
      <trkpt lat="48.69014" lon="7.19448">
        <ele>306.8</ele>
        <time>2023-11-21T11:58:47Z</time>
      </trkpt>
      <trkpt lat="48.6903" lon="7.19434">
        <ele>307.4</ele>
        <time>2023-11-21T11:58:52Z</time>
      </trkpt>
      <trkpt lat="48.69044" lon="7.19414">
        <ele>308.8</ele>
        <time>2023-11-21T11:58:59Z</time>
      </trkpt>
      <trkpt lat="48.69056" lon="7.19394">
        <ele>310.4</ele>
        <time>2023-11-21T11:59:06Z</time>
      </trkpt>
      <trkpt lat="48.69069" lon="7.19373">
        <ele>310.8</ele>
        <time>2023-11-21T11:59:13Z</time>
      </trkpt>
      <trkpt lat="48.69079" lon="7.19349">
        <ele>313.2</ele>
        <time>2023-11-21T11:59:20Z</time>
      </trkpt>
      <trkpt lat="48.69086" lon="7.19322">
        <ele>315.7</ele>
        <time>2023-11-21T11:59:28Z</time>
      </trkpt>
      <trkpt lat="48.69085" lon="7.19293">
        <ele>320.6</ele>
        <time>2023-11-21T11:59:39Z</time>
      </trkpt>
      <trkpt lat="48.69082" lon="7.19264">
        <ele>326.6</ele>
        <time>2023-11-21T11:59:51Z</time>
      </trkpt>
      <trkpt lat="48.6908" lon="7.19235">
        <ele>332.7</ele>
        <time>2023-11-21T11:59:59Z</time>
      </trkpt>
      <trkpt lat="48.69073" lon="7.19206">
        <ele>338.9</ele>
        <time>2023-11-21T12:00:05Z</time>
      </trkpt>
      <trkpt lat="48.69077" lon="7.19176">
        <ele>341.7</ele>
        <time>2023-11-21T12:00:12Z</time>
      </trkpt>
      <trkpt lat="48.69086" lon="7.19152">
        <ele>342.7</ele>
        <time>2023-11-21T12:00:19Z</time>
      </trkpt>
      <trkpt lat="48.691" lon="7.1913">
        <ele>343.1</ele>
        <time>2023-11-21T12:00:26Z</time>
      </trkpt>
      <trkpt lat="48.69102" lon="7.19123">
        <ele>343.7</ele>
        <time>2023-11-21T12:00:28Z</time>
      </trkpt>
      <trkpt lat="48.69101" lon="7.19094">
        <ele>345.2</ele>
        <time>2023-11-21T12:00:34Z</time>
      </trkpt>
      <trkpt lat="48.69104" lon="7.19063">
        <ele>347.6</ele>
        <time>2023-11-21T12:00:40Z</time>
      </trkpt>
      <trkpt lat="48.69116" lon="7.19039">
        <ele>348.9</ele>
        <time>2023-11-21T12:00:47Z</time>
      </trkpt>
      <trkpt lat="48.69134" lon="7.19026">
        <ele>350.5</ele>
        <time>2023-11-21T12:00:54Z</time>
      </trkpt>
      <trkpt lat="48.69153" lon="7.19031">
        <ele>353</ele>
        <time>2023-11-21T12:01:02Z</time>
      </trkpt>
      <trkpt lat="48.69166" lon="7.19053">
        <ele>353.3</ele>
        <time>2023-11-21T12:01:10Z</time>
      </trkpt>
      <trkpt lat="48.69181" lon="7.19074">
        <ele>355.6</ele>
        <time>2023-11-21T12:01:17Z</time>
      </trkpt>
      <trkpt lat="48.69192" lon="7.19096">
        <ele>358.4</ele>
        <time>2023-11-21T12:01:23Z</time>
      </trkpt>
      <trkpt lat="48.69201" lon="7.19121">
        <ele>359.8</ele>
        <time>2023-11-21T12:01:31Z</time>
      </trkpt>
      <trkpt lat="48.6921" lon="7.19148">
        <ele>358.6</ele>
        <time>2023-11-21T12:01:39Z</time>
      </trkpt>
      <trkpt lat="48.6921" lon="7.19155">
        <ele>357.8</ele>
        <time>2023-11-21T12:01:41Z</time>
      </trkpt>
      <trkpt lat="48.69207" lon="7.19184">
        <ele>355.7</ele>
        <time>2023-11-21T12:01:48Z</time>
      </trkpt>
      <trkpt lat="48.69204" lon="7.19214">
        <ele>353.4</ele>
        <time>2023-11-21T12:01:55Z</time>
      </trkpt>
      <trkpt lat="48.69205" lon="7.19244">
        <ele>351.2</ele>
        <time>2023-11-21T12:02:02Z</time>
      </trkpt>
      <trkpt lat="48.69203" lon="7.19274">
        <ele>349.1</ele>
        <time>2023-11-21T12:02:10Z</time>
      </trkpt>
      <trkpt lat="48.69204" lon="7.19302">
        <ele>346.6</ele>
        <time>2023-11-21T12:02:17Z</time>
      </trkpt>
      <trkpt lat="48.69201" lon="7.19333">
        <ele>343.2</ele>
        <time>2023-11-21T12:02:24Z</time>
      </trkpt>
      <trkpt lat="48.69197" lon="7.19364">
        <ele>338.2</ele>
        <time>2023-11-21T12:02:30Z</time>
      </trkpt>
      <trkpt lat="48.69194" lon="7.19394">
        <ele>333.3</ele>
        <time>2023-11-21T12:02:36Z</time>
      </trkpt>
      <trkpt lat="48.69189" lon="7.19421">
        <ele>327.9</ele>
        <time>2023-11-21T12:02:42Z</time>
      </trkpt>
      <trkpt lat="48.69183" lon="7.19452">
        <ele>324.6</ele>
        <time>2023-11-21T12:02:48Z</time>
      </trkpt>
      <trkpt lat="48.69178" lon="7.19481">
        <ele>320.6</ele>
        <time>2023-11-21T12:02:54Z</time>
      </trkpt>
      <trkpt lat="48.6917" lon="7.19512">
        <ele>318.4</ele>
        <time>2023-11-21T12:03:00Z</time>
      </trkpt>
      <trkpt lat="48.69162" lon="7.19538">
        <ele>316.8</ele>
        <time>2023-11-21T12:03:05Z</time>
      </trkpt>
      <trkpt lat="48.69154" lon="7.19565">
        <ele>315.9</ele>
        <time>2023-11-21T12:03:10Z</time>
      </trkpt>
      <trkpt lat="48.69147" lon="7.19594">
        <ele>315.9</ele>
        <time>2023-11-21T12:03:16Z</time>
      </trkpt>
      <trkpt lat="48.69144" lon="7.19622">
        <ele>315.4</ele>
        <time>2023-11-21T12:03:22Z</time>
      </trkpt>
      <trkpt lat="48.69146" lon="7.19649">
        <ele>316.7</ele>
        <time>2023-11-21T12:03:29Z</time>
      </trkpt>
      <trkpt lat="48.69154" lon="7.19676">
        <ele>318.5</ele>
        <time>2023-11-21T12:03:36Z</time>
      </trkpt>
      <trkpt lat="48.69163" lon="7.19701">
        <ele>319.6</ele>
        <time>2023-11-21T12:03:42Z</time>
      </trkpt>
      <trkpt lat="48.69178" lon="7.19717">
        <ele>321</ele>
        <time>2023-11-21T12:03:52Z</time>
      </trkpt>
      <trkpt lat="48.69196" lon="7.19716">
        <ele>322</ele>
        <time>2023-11-21T12:04:07Z</time>
      </trkpt>
      <trkpt lat="48.69208" lon="7.19694">
        <ele>321.8</ele>
        <time>2023-11-21T12:04:22Z</time>
      </trkpt>
      <trkpt lat="48.69211" lon="7.19667">
        <ele>321.7</ele>
        <time>2023-11-21T12:04:35Z</time>
      </trkpt>
      <trkpt lat="48.69212" lon="7.19639">
        <ele>321</ele>
        <time>2023-11-21T12:04:48Z</time>
      </trkpt>
      <trkpt lat="48.69215" lon="7.1961">
        <ele>320.3</ele>
        <time>2023-11-21T12:05:00Z</time>
      </trkpt>
      <trkpt lat="48.69224" lon="7.19584">
        <ele>320</ele>
        <time>2023-11-21T12:05:11Z</time>
      </trkpt>
      <trkpt lat="48.69232" lon="7.1956">
        <ele>320.3</ele>
        <time>2023-11-21T12:05:21Z</time>
      </trkpt>
      <trkpt lat="48.69242" lon="7.19533">
        <ele>320.8</ele>
        <time>2023-11-21T12:05:30Z</time>
      </trkpt>
      <trkpt lat="48.69248" lon="7.19505">
        <ele>323.6</ele>
        <time>2023-11-21T12:05:39Z</time>
      </trkpt>
      <trkpt lat="48.69254" lon="7.19479">
        <ele>326.9</ele>
        <time>2023-11-21T12:05:49Z</time>
      </trkpt>
      <trkpt lat="48.69266" lon="7.19455">
        <ele>329.4</ele>
        <time>2023-11-21T12:05:57Z</time>
      </trkpt>
      <trkpt lat="48.69276" lon="7.1943">
        <ele>333</ele>
        <time>2023-11-21T12:06:04Z</time>
      </trkpt>
      <trkpt lat="48.69284" lon="7.19404">
        <ele>337.8</ele>
        <time>2023-11-21T12:06:10Z</time>
      </trkpt>
      <trkpt lat="48.69291" lon="7.19379">
        <ele>343.3</ele>
        <time>2023-11-21T12:06:17Z</time>
      </trkpt>
      <trkpt lat="48.69297" lon="7.19352">
        <ele>348.8</ele>
        <time>2023-11-21T12:06:25Z</time>
      </trkpt>
      <trkpt lat="48.69303" lon="7.19326">
        <ele>352.5</ele>
        <time>2023-11-21T12:06:32Z</time>
      </trkpt>
      <trkpt lat="48.69308" lon="7.19299">
        <ele>356.2</ele>
        <time>2023-11-21T12:06:39Z</time>
      </trkpt>
      <trkpt lat="48.69314" lon="7.1927">
        <ele>359.9</ele>
        <time>2023-11-21T12:06:46Z</time>
      </trkpt>
      <trkpt lat="48.69318" lon="7.19242">
        <ele>363.2</ele>
        <time>2023-11-21T12:06:54Z</time>
      </trkpt>
      <trkpt lat="48.69322" lon="7.19213">
        <ele>365.9</ele>
        <time>2023-11-21T12:07:03Z</time>
      </trkpt>
      <trkpt lat="48.69324" lon="7.19189">
        <ele>367.1</ele>
        <time>2023-11-21T12:07:13Z</time>
      </trkpt>
      <trkpt lat="48.69327" lon="7.19182">
        <ele>367.4</ele>
        <time>2023-11-21T12:07:16Z</time>
      </trkpt>
      <trkpt lat="48.69327" lon="7.19152">
        <ele>370.8</ele>
        <time>2023-11-21T12:07:29Z</time>
      </trkpt>
      <trkpt lat="48.69323" lon="7.19125">
        <ele>375.1</ele>
        <time>2023-11-21T12:07:41Z</time>
      </trkpt>
      <trkpt lat="48.69324" lon="7.19097">
        <ele>379.4</ele>
        <time>2023-11-21T12:07:53Z</time>
      </trkpt>
      <trkpt lat="48.69326" lon="7.19081">
        <ele>381.8</ele>
        <time>2023-11-21T12:08:02Z</time>
      </trkpt>
      <trkpt lat="48.69328" lon="7.19067">
        <ele>383.8</ele>
        <time>2023-11-21T12:08:11Z</time>
      </trkpt>
      <trkpt lat="48.69328" lon="7.19058">
        <ele>385.4</ele>
        <time>2023-11-21T12:08:17Z</time>
      </trkpt>
      <trkpt lat="48.6933" lon="7.1905">
        <ele>387.1</ele>
        <time>2023-11-21T12:08:21Z</time>
      </trkpt>
      <trkpt lat="48.69329" lon="7.19031">
        <ele>390.1</ele>
        <time>2023-11-21T12:08:33Z</time>
      </trkpt>
      <trkpt lat="48.69324" lon="7.19004">
        <ele>395.5</ele>
        <time>2023-11-21T12:08:43Z</time>
      </trkpt>
      <trkpt lat="48.69315" lon="7.18979">
        <ele>399</ele>
        <time>2023-11-21T12:08:54Z</time>
      </trkpt>
      <trkpt lat="48.69307" lon="7.18952">
        <ele>402.6</ele>
        <time>2023-11-21T12:09:05Z</time>
      </trkpt>
      <trkpt lat="48.69305" lon="7.18923">
        <ele>404.4</ele>
        <time>2023-11-21T12:09:15Z</time>
      </trkpt>
      <trkpt lat="48.69303" lon="7.18895">
        <ele>405.5</ele>
        <time>2023-11-21T12:09:24Z</time>
      </trkpt>
      <trkpt lat="48.69298" lon="7.18867">
        <ele>406.2</ele>
        <time>2023-11-21T12:09:33Z</time>
      </trkpt>
      <trkpt lat="48.69296" lon="7.18838">
        <ele>407</ele>
        <time>2023-11-21T12:09:42Z</time>
      </trkpt>
      <trkpt lat="48.69292" lon="7.1881">
        <ele>408.3</ele>
        <time>2023-11-21T12:09:50Z</time>
      </trkpt>
      <trkpt lat="48.69289" lon="7.1878">
        <ele>409.4</ele>
        <time>2023-11-21T12:09:57Z</time>
      </trkpt>
      <trkpt lat="48.69286" lon="7.1875">
        <ele>409.1</ele>
        <time>2023-11-21T12:10:05Z</time>
      </trkpt>
      <trkpt lat="48.69275" lon="7.18726">
        <ele>410.5</ele>
        <time>2023-11-21T12:10:12Z</time>
      </trkpt>
      <trkpt lat="48.69261" lon="7.18706">
        <ele>413.2</ele>
        <time>2023-11-21T12:10:21Z</time>
      </trkpt>
      <trkpt lat="48.69247" lon="7.18687">
        <ele>415.4</ele>
        <time>2023-11-21T12:10:29Z</time>
      </trkpt>
      <trkpt lat="48.69233" lon="7.18668">
        <ele>417.8</ele>
        <time>2023-11-21T12:10:37Z</time>
      </trkpt>
      <trkpt lat="48.69219" lon="7.18649">
        <ele>419.3</ele>
        <time>2023-11-21T12:10:47Z</time>
      </trkpt>
      <trkpt lat="48.69209" lon="7.18624">
        <ele>418.4</ele>
        <time>2023-11-21T12:10:56Z</time>
      </trkpt>
      <trkpt lat="48.69198" lon="7.18599">
        <ele>415.6</ele>
        <time>2023-11-21T12:11:06Z</time>
      </trkpt>
      <trkpt lat="48.69192" lon="7.18574">
        <ele>414.1</ele>
        <time>2023-11-21T12:11:13Z</time>
      </trkpt>
      <trkpt lat="48.6919" lon="7.18562">
        <ele>413.7</ele>
        <time>2023-11-21T12:11:18Z</time>
      </trkpt>
      <trkpt lat="48.69177" lon="7.1854">
        <ele>413.9</ele>
        <time>2023-11-21T12:11:27Z</time>
      </trkpt>
      <trkpt lat="48.6916" lon="7.1853">
        <ele>415.4</ele>
        <time>2023-11-21T12:11:35Z</time>
      </trkpt>
      <trkpt lat="48.69147" lon="7.1852">
        <ele>416.5</ele>
        <time>2023-11-21T12:11:42Z</time>
      </trkpt>
      <trkpt lat="48.69149" lon="7.18492">
        <ele>416.1</ele>
        <time>2023-11-21T12:11:50Z</time>
      </trkpt>
      <trkpt lat="48.69147" lon="7.18461">
        <ele>415.3</ele>
        <time>2023-11-21T12:11:57Z</time>
      </trkpt>
      <trkpt lat="48.69147" lon="7.18433">
        <ele>414.1</ele>
        <time>2023-11-21T12:12:03Z</time>
      </trkpt>
      <trkpt lat="48.6915" lon="7.18406">
        <ele>413.2</ele>
        <time>2023-11-21T12:12:09Z</time>
      </trkpt>
      <trkpt lat="48.69152" lon="7.18376">
        <ele>412.4</ele>
        <time>2023-11-21T12:12:16Z</time>
      </trkpt>
      <trkpt lat="48.69157" lon="7.18345">
        <ele>411.7</ele>
        <time>2023-11-21T12:12:23Z</time>
      </trkpt>
      <trkpt lat="48.69164" lon="7.18319">
        <ele>411.2</ele>
        <time>2023-11-21T12:12:29Z</time>
      </trkpt>
      <trkpt lat="48.69169" lon="7.18291">
        <ele>410.6</ele>
        <time>2023-11-21T12:12:35Z</time>
      </trkpt>
      <trkpt lat="48.69174" lon="7.18261">
        <ele>411.1</ele>
        <time>2023-11-21T12:12:41Z</time>
      </trkpt>
      <trkpt lat="48.6918" lon="7.18231">
        <ele>411.7</ele>
        <time>2023-11-21T12:12:47Z</time>
      </trkpt>
      <trkpt lat="48.69187" lon="7.18201">
        <ele>412.2</ele>
        <time>2023-11-21T12:12:54Z</time>
      </trkpt>
      <trkpt lat="48.69195" lon="7.18173">
        <ele>412.5</ele>
        <time>2023-11-21T12:13:01Z</time>
      </trkpt>
      <trkpt lat="48.69205" lon="7.18145">
        <ele>412.7</ele>
        <time>2023-11-21T12:13:08Z</time>
      </trkpt>
      <trkpt lat="48.69217" lon="7.18119">
        <ele>413.1</ele>
        <time>2023-11-21T12:13:15Z</time>
      </trkpt>
      <trkpt lat="48.69227" lon="7.18094">
        <ele>413.1</ele>
        <time>2023-11-21T12:13:21Z</time>
      </trkpt>
      <trkpt lat="48.6924" lon="7.1807">
        <ele>413</ele>
        <time>2023-11-21T12:13:28Z</time>
      </trkpt>
      <trkpt lat="48.69252" lon="7.18046">
        <ele>412.9</ele>
        <time>2023-11-21T12:13:34Z</time>
      </trkpt>
      <trkpt lat="48.69264" lon="7.18025">
        <ele>412.8</ele>
        <time>2023-11-21T12:13:40Z</time>
      </trkpt>
      <trkpt lat="48.69278" lon="7.18001">
        <ele>412.5</ele>
        <time>2023-11-21T12:13:47Z</time>
      </trkpt>
      <trkpt lat="48.69293" lon="7.17983">
        <ele>412.1</ele>
        <time>2023-11-21T12:13:53Z</time>
      </trkpt>
      <trkpt lat="48.69306" lon="7.17963">
        <ele>411.6</ele>
        <time>2023-11-21T12:13:59Z</time>
      </trkpt>
      <trkpt lat="48.69319" lon="7.17942">
        <ele>410.9</ele>
        <time>2023-11-21T12:14:05Z</time>
      </trkpt>
      <trkpt lat="48.6933" lon="7.17916">
        <ele>409.9</ele>
        <time>2023-11-21T12:14:11Z</time>
      </trkpt>
      <trkpt lat="48.69341" lon="7.1789">
        <ele>408.7</ele>
        <time>2023-11-21T12:14:17Z</time>
      </trkpt>
      <trkpt lat="48.69354" lon="7.17865">
        <ele>407.8</ele>
        <time>2023-11-21T12:14:24Z</time>
      </trkpt>
      <trkpt lat="48.69363" lon="7.17839">
        <ele>407</ele>
        <time>2023-11-21T12:14:30Z</time>
      </trkpt>
      <trkpt lat="48.69373" lon="7.17814">
        <ele>406.2</ele>
        <time>2023-11-21T12:14:36Z</time>
      </trkpt>
      <trkpt lat="48.69383" lon="7.17787">
        <ele>405.5</ele>
        <time>2023-11-21T12:14:43Z</time>
      </trkpt>
      <trkpt lat="48.69392" lon="7.17762">
        <ele>405.1</ele>
        <time>2023-11-21T12:14:50Z</time>
      </trkpt>
      <trkpt lat="48.69401" lon="7.17737">
        <ele>404.8</ele>
        <time>2023-11-21T12:14:57Z</time>
      </trkpt>
      <trkpt lat="48.69411" lon="7.17711">
        <ele>404.6</ele>
        <time>2023-11-21T12:15:06Z</time>
      </trkpt>
      <trkpt lat="48.69424" lon="7.17689">
        <ele>404.5</ele>
        <time>2023-11-21T12:15:13Z</time>
      </trkpt>
      <trkpt lat="48.6944" lon="7.17673">
        <ele>404.3</ele>
        <time>2023-11-21T12:15:20Z</time>
      </trkpt>
      <trkpt lat="48.69455" lon="7.17659">
        <ele>404.2</ele>
        <time>2023-11-21T12:15:26Z</time>
      </trkpt>
      <trkpt lat="48.69471" lon="7.17641">
        <ele>403.9</ele>
        <time>2023-11-21T12:15:32Z</time>
      </trkpt>
      <trkpt lat="48.69488" lon="7.17624">
        <ele>403.8</ele>
        <time>2023-11-21T12:15:39Z</time>
      </trkpt>
      <trkpt lat="48.69502" lon="7.17606">
        <ele>403.8</ele>
        <time>2023-11-21T12:15:47Z</time>
      </trkpt>
      <trkpt lat="48.69515" lon="7.17585">
        <ele>403.9</ele>
        <time>2023-11-21T12:15:54Z</time>
      </trkpt>
      <trkpt lat="48.6953" lon="7.17571">
        <ele>404</ele>
        <time>2023-11-21T12:16:00Z</time>
      </trkpt>
      <trkpt lat="48.69544" lon="7.17552">
        <ele>403.9</ele>
        <time>2023-11-21T12:16:07Z</time>
      </trkpt>
      <trkpt lat="48.69558" lon="7.17533">
        <ele>403.7</ele>
        <time>2023-11-21T12:16:13Z</time>
      </trkpt>
      <trkpt lat="48.69575" lon="7.17519">
        <ele>403.5</ele>
        <time>2023-11-21T12:16:19Z</time>
      </trkpt>
      <trkpt lat="48.6959" lon="7.17503">
        <ele>402.9</ele>
        <time>2023-11-21T12:16:25Z</time>
      </trkpt>
      <trkpt lat="48.69607" lon="7.17487">
        <ele>402.2</ele>
        <time>2023-11-21T12:16:32Z</time>
      </trkpt>
      <trkpt lat="48.69623" lon="7.17469">
        <ele>401.3</ele>
        <time>2023-11-21T12:16:38Z</time>
      </trkpt>
      <trkpt lat="48.69639" lon="7.17451">
        <ele>400.5</ele>
        <time>2023-11-21T12:16:44Z</time>
      </trkpt>
      <trkpt lat="48.69657" lon="7.17439">
        <ele>400.1</ele>
        <time>2023-11-21T12:16:51Z</time>
      </trkpt>
      <trkpt lat="48.69674" lon="7.17431">
        <ele>399.7</ele>
        <time>2023-11-21T12:16:57Z</time>
      </trkpt>
      <trkpt lat="48.6969" lon="7.17414">
        <ele>399.3</ele>
        <time>2023-11-21T12:17:04Z</time>
      </trkpt>
      <trkpt lat="48.69709" lon="7.17398">
        <ele>399.2</ele>
        <time>2023-11-21T12:17:11Z</time>
      </trkpt>
      <trkpt lat="48.69725" lon="7.17385">
        <ele>399.1</ele>
        <time>2023-11-21T12:17:17Z</time>
      </trkpt>
      <trkpt lat="48.69742" lon="7.17371">
        <ele>399</ele>
        <time>2023-11-21T12:17:25Z</time>
      </trkpt>
      <trkpt lat="48.69759" lon="7.17356">
        <ele>399</ele>
        <time>2023-11-21T12:17:33Z</time>
      </trkpt>
      <trkpt lat="48.69777" lon="7.17345">
        <ele>398.8</ele>
        <time>2023-11-21T12:17:39Z</time>
      </trkpt>
      <trkpt lat="48.69795" lon="7.17337">
        <ele>398.8</ele>
        <time>2023-11-21T12:17:44Z</time>
      </trkpt>
      <trkpt lat="48.69814" lon="7.17334">
        <ele>398.8</ele>
        <time>2023-11-21T12:17:50Z</time>
      </trkpt>
      <trkpt lat="48.69833" lon="7.17337">
        <ele>399.1</ele>
        <time>2023-11-21T12:17:56Z</time>
      </trkpt>
      <trkpt lat="48.69851" lon="7.1733">
        <ele>398.3</ele>
        <time>2023-11-21T12:18:02Z</time>
      </trkpt>
      <trkpt lat="48.69871" lon="7.17323">
        <ele>396.9</ele>
        <time>2023-11-21T12:18:09Z</time>
      </trkpt>
      <trkpt lat="48.69889" lon="7.17314">
        <ele>394.9</ele>
        <time>2023-11-21T12:18:15Z</time>
      </trkpt>
      <trkpt lat="48.69907" lon="7.17305">
        <ele>393.6</ele>
        <time>2023-11-21T12:18:22Z</time>
      </trkpt>
      <trkpt lat="48.69925" lon="7.17298">
        <ele>392.7</ele>
        <time>2023-11-21T12:18:30Z</time>
      </trkpt>
      <trkpt lat="48.6994" lon="7.17281">
        <ele>391.8</ele>
        <time>2023-11-21T12:18:37Z</time>
      </trkpt>
      <trkpt lat="48.69955" lon="7.17261">
        <ele>390.7</ele>
        <time>2023-11-21T12:18:44Z</time>
      </trkpt>
      <trkpt lat="48.69968" lon="7.1724">
        <ele>389.4</ele>
        <time>2023-11-21T12:18:51Z</time>
      </trkpt>
      <trkpt lat="48.69982" lon="7.17219">
        <ele>387.9</ele>
        <time>2023-11-21T12:18:58Z</time>
      </trkpt>
      <trkpt lat="48.69997" lon="7.17199">
        <ele>386.2</ele>
        <time>2023-11-21T12:19:05Z</time>
      </trkpt>
      <trkpt lat="48.70014" lon="7.17181">
        <ele>384.5</ele>
        <time>2023-11-21T12:19:12Z</time>
      </trkpt>
      <trkpt lat="48.7003" lon="7.17164">
        <ele>382.8</ele>
        <time>2023-11-21T12:19:19Z</time>
      </trkpt>
      <trkpt lat="48.70045" lon="7.17148">
        <ele>381.1</ele>
        <time>2023-11-21T12:19:25Z</time>
      </trkpt>
      <trkpt lat="48.70061" lon="7.17131">
        <ele>379.4</ele>
        <time>2023-11-21T12:19:31Z</time>
      </trkpt>
      <trkpt lat="48.70077" lon="7.17117">
        <ele>377.9</ele>
        <time>2023-11-21T12:19:37Z</time>
      </trkpt>
      <trkpt lat="48.70093" lon="7.17099">
        <ele>376.3</ele>
        <time>2023-11-21T12:19:44Z</time>
      </trkpt>
      <trkpt lat="48.70109" lon="7.17081">
        <ele>374.8</ele>
        <time>2023-11-21T12:19:51Z</time>
      </trkpt>
      <trkpt lat="48.70124" lon="7.17061">
        <ele>373.3</ele>
        <time>2023-11-21T12:19:58Z</time>
      </trkpt>
      <trkpt lat="48.70136" lon="7.17039">
        <ele>372.5</ele>
        <time>2023-11-21T12:20:05Z</time>
      </trkpt>
      <trkpt lat="48.70154" lon="7.17022">
        <ele>370.7</ele>
        <time>2023-11-21T12:20:12Z</time>
      </trkpt>
      <trkpt lat="48.70171" lon="7.1701">
        <ele>369.3</ele>
        <time>2023-11-21T12:20:18Z</time>
      </trkpt>
      <trkpt lat="48.70188" lon="7.16997">
        <ele>367.9</ele>
        <time>2023-11-21T12:20:24Z</time>
      </trkpt>
      <trkpt lat="48.70205" lon="7.16983">
        <ele>366.5</ele>
        <time>2023-11-21T12:20:30Z</time>
      </trkpt>
      <trkpt lat="48.70223" lon="7.1697">
        <ele>365.4</ele>
        <time>2023-11-21T12:20:37Z</time>
      </trkpt>
      <trkpt lat="48.70242" lon="7.16957">
        <ele>364.4</ele>
        <time>2023-11-21T12:20:44Z</time>
      </trkpt>
      <trkpt lat="48.7026" lon="7.16945">
        <ele>363.2</ele>
        <time>2023-11-21T12:20:51Z</time>
      </trkpt>
      <trkpt lat="48.70279" lon="7.16931">
        <ele>361.8</ele>
        <time>2023-11-21T12:20:58Z</time>
      </trkpt>
      <trkpt lat="48.70297" lon="7.16918">
        <ele>360.3</ele>
        <time>2023-11-21T12:21:05Z</time>
      </trkpt>
      <trkpt lat="48.70315" lon="7.16905">
        <ele>358.7</ele>
        <time>2023-11-21T12:21:11Z</time>
      </trkpt>
      <trkpt lat="48.70334" lon="7.16894">
        <ele>356.9</ele>
        <time>2023-11-21T12:21:17Z</time>
      </trkpt>
      <trkpt lat="48.70352" lon="7.16883">
        <ele>355.5</ele>
        <time>2023-11-21T12:21:23Z</time>
      </trkpt>
      <trkpt lat="48.70369" lon="7.16871">
        <ele>354.6</ele>
        <time>2023-11-21T12:21:29Z</time>
      </trkpt>
      <trkpt lat="48.70387" lon="7.1686">
        <ele>354</ele>
        <time>2023-11-21T12:21:35Z</time>
      </trkpt>
      <trkpt lat="48.70404" lon="7.16845">
        <ele>353.6</ele>
        <time>2023-11-21T12:21:41Z</time>
      </trkpt>
      <trkpt lat="48.70418" lon="7.16828">
        <ele>353.4</ele>
        <time>2023-11-21T12:21:47Z</time>
      </trkpt>
      <trkpt lat="48.70434" lon="7.16807">
        <ele>353.4</ele>
        <time>2023-11-21T12:21:54Z</time>
      </trkpt>
      <trkpt lat="48.70447" lon="7.16787">
        <ele>353.7</ele>
        <time>2023-11-21T12:22:01Z</time>
      </trkpt>
      <trkpt lat="48.70461" lon="7.16765">
        <ele>354.3</ele>
        <time>2023-11-21T12:22:08Z</time>
      </trkpt>
      <trkpt lat="48.70475" lon="7.16748">
        <ele>355.1</ele>
        <time>2023-11-21T12:22:15Z</time>
      </trkpt>
      <trkpt lat="48.70488" lon="7.16728">
        <ele>355.8</ele>
        <time>2023-11-21T12:22:22Z</time>
      </trkpt>
      <trkpt lat="48.70499" lon="7.16705">
        <ele>356.3</ele>
        <time>2023-11-21T12:22:29Z</time>
      </trkpt>
      <trkpt lat="48.70511" lon="7.16682">
        <ele>356.7</ele>
        <time>2023-11-21T12:22:36Z</time>
      </trkpt>
      <trkpt lat="48.70522" lon="7.16658">
        <ele>356.6</ele>
        <time>2023-11-21T12:22:43Z</time>
      </trkpt>
      <trkpt lat="48.70534" lon="7.16634">
        <ele>356</ele>
        <time>2023-11-21T12:22:50Z</time>
      </trkpt>
      <trkpt lat="48.70548" lon="7.16614">
        <ele>355.2</ele>
        <time>2023-11-21T12:22:57Z</time>
      </trkpt>
      <trkpt lat="48.7056" lon="7.16593">
        <ele>354.5</ele>
        <time>2023-11-21T12:23:03Z</time>
      </trkpt>
      <trkpt lat="48.70575" lon="7.16571">
        <ele>353.5</ele>
        <time>2023-11-21T12:23:10Z</time>
      </trkpt>
      <trkpt lat="48.70589" lon="7.16549">
        <ele>352.6</ele>
        <time>2023-11-21T12:23:17Z</time>
      </trkpt>
      <trkpt lat="48.70604" lon="7.16527">
        <ele>351.6</ele>
        <time>2023-11-21T12:23:24Z</time>
      </trkpt>
      <trkpt lat="48.70617" lon="7.16505">
        <ele>350.6</ele>
        <time>2023-11-21T12:23:31Z</time>
      </trkpt>
      <trkpt lat="48.70629" lon="7.16482">
        <ele>349.4</ele>
        <time>2023-11-21T12:23:38Z</time>
      </trkpt>
      <trkpt lat="48.70643" lon="7.1646">
        <ele>348.4</ele>
        <time>2023-11-21T12:23:45Z</time>
      </trkpt>
      <trkpt lat="48.70655" lon="7.16437">
        <ele>347.6</ele>
        <time>2023-11-21T12:23:52Z</time>
      </trkpt>
      <trkpt lat="48.70667" lon="7.16413">
        <ele>346.4</ele>
        <time>2023-11-21T12:23:59Z</time>
      </trkpt>
      <trkpt lat="48.7068" lon="7.16388">
        <ele>344.7</ele>
        <time>2023-11-21T12:24:06Z</time>
      </trkpt>
      <trkpt lat="48.70694" lon="7.16365">
        <ele>343</ele>
        <time>2023-11-21T12:24:13Z</time>
      </trkpt>
      <trkpt lat="48.70706" lon="7.16342">
        <ele>341.4</ele>
        <time>2023-11-21T12:24:20Z</time>
      </trkpt>
      <trkpt lat="48.70719" lon="7.16321">
        <ele>339.9</ele>
        <time>2023-11-21T12:24:27Z</time>
      </trkpt>
      <trkpt lat="48.70731" lon="7.163">
        <ele>338.4</ele>
        <time>2023-11-21T12:24:33Z</time>
      </trkpt>
      <trkpt lat="48.70744" lon="7.16277">
        <ele>336.7</ele>
        <time>2023-11-21T12:24:40Z</time>
      </trkpt>
      <trkpt lat="48.70759" lon="7.16258">
        <ele>335</ele>
        <time>2023-11-21T12:24:47Z</time>
      </trkpt>
      <trkpt lat="48.70772" lon="7.16235">
        <ele>333.1</ele>
        <time>2023-11-21T12:24:54Z</time>
      </trkpt>
      <trkpt lat="48.70786" lon="7.16211">
        <ele>331.2</ele>
        <time>2023-11-21T12:25:01Z</time>
      </trkpt>
      <trkpt lat="48.70799" lon="7.1619">
        <ele>329.7</ele>
        <time>2023-11-21T12:25:07Z</time>
      </trkpt>
      <trkpt lat="48.7081" lon="7.16168">
        <ele>328.3</ele>
        <time>2023-11-21T12:25:13Z</time>
      </trkpt>
      <trkpt lat="48.70822" lon="7.16141">
        <ele>326.4</ele>
        <time>2023-11-21T12:25:20Z</time>
      </trkpt>
      <trkpt lat="48.70837" lon="7.16126">
        <ele>324.8</ele>
        <time>2023-11-21T12:25:26Z</time>
      </trkpt>
      <trkpt lat="48.70857" lon="7.16128">
        <ele>324</ele>
        <time>2023-11-21T12:25:33Z</time>
      </trkpt>
      <trkpt lat="48.70878" lon="7.16131">
        <ele>323.2</ele>
        <time>2023-11-21T12:25:40Z</time>
      </trkpt>
      <trkpt lat="48.70897" lon="7.16134">
        <ele>322.5</ele>
        <time>2023-11-21T12:25:46Z</time>
      </trkpt>
      <trkpt lat="48.70915" lon="7.16139">
        <ele>321.8</ele>
        <time>2023-11-21T12:25:52Z</time>
      </trkpt>
      <trkpt lat="48.70934" lon="7.16143">
        <ele>321.2</ele>
        <time>2023-11-21T12:25:58Z</time>
      </trkpt>
      <trkpt lat="48.70953" lon="7.16148">
        <ele>320.4</ele>
        <time>2023-11-21T12:26:04Z</time>
      </trkpt>
      <trkpt lat="48.70972" lon="7.16153">
        <ele>319.8</ele>
        <time>2023-11-21T12:26:10Z</time>
      </trkpt>
      <trkpt lat="48.7099" lon="7.16158">
        <ele>319.2</ele>
        <time>2023-11-21T12:26:16Z</time>
      </trkpt>
      <trkpt lat="48.71009" lon="7.16164">
        <ele>318.9</ele>
        <time>2023-11-21T12:26:22Z</time>
      </trkpt>
      <trkpt lat="48.71029" lon="7.16167">
        <ele>318.7</ele>
        <time>2023-11-21T12:26:28Z</time>
      </trkpt>
      <trkpt lat="48.71049" lon="7.16172">
        <ele>318.6</ele>
        <time>2023-11-21T12:26:34Z</time>
      </trkpt>
      <trkpt lat="48.71068" lon="7.1618">
        <ele>318.5</ele>
        <time>2023-11-21T12:26:40Z</time>
      </trkpt>
      <trkpt lat="48.71085" lon="7.16193">
        <ele>318.3</ele>
        <time>2023-11-21T12:26:46Z</time>
      </trkpt>
      <trkpt lat="48.711" lon="7.16213">
        <ele>318.1</ele>
        <time>2023-11-21T12:26:52Z</time>
      </trkpt>
      <trkpt lat="48.71116" lon="7.16234">
        <ele>318</ele>
        <time>2023-11-21T12:26:58Z</time>
      </trkpt>
      <trkpt lat="48.7113" lon="7.16255">
        <ele>317.6</ele>
        <time>2023-11-21T12:27:04Z</time>
      </trkpt>
      <trkpt lat="48.71143" lon="7.16266">
        <ele>317.2</ele>
        <time>2023-11-21T12:27:10Z</time>
      </trkpt>
    </trkseg>
  </trk>
</gpx>